<?xml version='1.0' encoding='UTF-8'?>
<gpx version="1.1" creator="https://www.komoot.de" xmlns="http://www.topografix.com/GPX/1/1" xmlns:xsi="http://www.w3.org/2001/XMLSchema-instance" xsi:schemaLocation="http://www.topografix.com/GPX/1/1 http://www.topografix.com/GPX/1/1/gpx.xsd">
  <metadata>
    <name>RTF-72 km-Nieder-Weisel-2026V0504</name>
    <author>
      <link href="https://www.komoot.de">
        <text>komoot</text>
        <type>text/html</type>
      </link>
    </author>
  </metadata>
  <wpt lat="50.414751" lon="8.686921">
    <name>START &amp; ZIEL Mehrzweckhalle</name>
    <sym>Flag, Blue</sym>
  </wpt>
  <wpt lat="50.528545" lon="8.748818">
    <name>Kontrollpunkt 1 Garbenteich</name>
    <desc>alle Strecken</desc>
    <sym>Flag, Blue</sym>
  </wpt>
  <wpt lat="50.410237" lon="8.910015">
    <name>Kontrollpunkt 2 Grund-Schwalhe</name>
    <desc>72 km + 117 km Strecken</desc>
    <sym>Flag, Blue</sym>
  </wpt>
  <wpt lat="50.414824" lon="8.686790">
    <name>Ziel</name>
    <desc>Alle Strecken</desc>
    <sym>Flag, Blue</sym>
  </wpt>
  <trk>
    <name>RTF-72 km-Nieder-Weisel-2026V0504</name>
    <trkseg>
      <trkpt lat="50.414751" lon="8.686921">
        <ele>174.246825</ele>
        <time>2026-05-04T11:53:09.381Z</time>
      </trkpt>
      <trkpt lat="50.415134" lon="8.687011">
        <ele>174.246825</ele>
        <time>2026-05-04T11:53:16.165Z</time>
      </trkpt>
      <trkpt lat="50.415178" lon="8.687021">
        <ele>174.246825</ele>
        <time>2026-05-04T11:53:16.956Z</time>
      </trkpt>
      <trkpt lat="50.415458" lon="8.687062">
        <ele>174.246825</ele>
        <time>2026-05-04T11:53:22.223Z</time>
      </trkpt>
      <trkpt lat="50.415680" lon="8.687160">
        <ele>174.310167</ele>
        <time>2026-05-04T11:53:26.725Z</time>
      </trkpt>
      <trkpt lat="50.415943" lon="8.687353">
        <ele>174.725871</ele>
        <time>2026-05-04T11:53:32.679Z</time>
      </trkpt>
      <trkpt lat="50.416322" lon="8.686269">
        <ele>175.853967</ele>
        <time>2026-05-04T11:53:53.284Z</time>
      </trkpt>
      <trkpt lat="50.416504" lon="8.685766">
        <ele>176.381708</ele>
        <time>2026-05-04T11:54:01.277Z</time>
      </trkpt>
      <trkpt lat="50.416773" lon="8.684972">
        <ele>177.138632</ele>
        <time>2026-05-04T11:54:13.160Z</time>
      </trkpt>
      <trkpt lat="50.417034" lon="8.685200">
        <ele>177.494845</ele>
        <time>2026-05-04T11:54:19.105Z</time>
      </trkpt>
      <trkpt lat="50.417384" lon="8.685546">
        <ele>177.988125</ele>
        <time>2026-05-04T11:54:27.011Z</time>
      </trkpt>
      <trkpt lat="50.417711" lon="8.684781">
        <ele>178.688091</ele>
        <time>2026-05-04T11:54:38.084Z</time>
      </trkpt>
      <trkpt lat="50.417841" lon="8.684359">
        <ele>179.062445</ele>
        <time>2026-05-04T11:54:43.674Z</time>
      </trkpt>
      <trkpt lat="50.417871" lon="8.684273">
        <ele>179.154493</ele>
        <time>2026-05-04T11:54:44.854Z</time>
      </trkpt>
      <trkpt lat="50.418195" lon="8.683009">
        <ele>180.433615</ele>
        <time>2026-05-04T11:55:06.948Z</time>
      </trkpt>
      <trkpt lat="50.418346" lon="8.682407">
        <ele>181.041011</ele>
        <time>2026-05-04T11:55:18.250Z</time>
      </trkpt>
      <trkpt lat="50.418371" lon="8.682309">
        <ele>181.140117</ele>
        <time>2026-05-04T11:55:20.102Z</time>
      </trkpt>
      <trkpt lat="50.418843" lon="8.681481">
        <ele>182.227146</ele>
        <time>2026-05-04T11:55:39.649Z</time>
      </trkpt>
      <trkpt lat="50.418946" lon="8.681297">
        <ele>182.474957</ele>
        <time>2026-05-04T11:55:43.930Z</time>
      </trkpt>
      <trkpt lat="50.419228" lon="8.680796">
        <ele>183.151328</ele>
        <time>2026-05-04T11:55:55.554Z</time>
      </trkpt>
      <trkpt lat="50.419185" lon="8.680600">
        <ele>183.361064</ele>
        <time>2026-05-04T11:55:58.353Z</time>
      </trkpt>
      <trkpt lat="50.419065" lon="8.679673">
        <ele>184.318150</ele>
        <time>2026-05-04T11:56:10.448Z</time>
      </trkpt>
      <trkpt lat="50.419046" lon="8.678860">
        <ele>184.917144</ele>
        <time>2026-05-04T11:56:20.685Z</time>
      </trkpt>
      <trkpt lat="50.418990" lon="8.677666">
        <ele>185.721985</ele>
        <time>2026-05-04T11:56:35.296Z</time>
      </trkpt>
      <trkpt lat="50.418994" lon="8.676574">
        <ele>186.443692</ele>
        <time>2026-05-04T11:56:48.370Z</time>
      </trkpt>
      <trkpt lat="50.419040" lon="8.674703">
        <ele>187.518821</ele>
        <time>2026-05-04T11:57:09.451Z</time>
      </trkpt>
      <trkpt lat="50.419103" lon="8.673506">
        <ele>188.257673</ele>
        <time>2026-05-04T11:57:24.128Z</time>
      </trkpt>
      <trkpt lat="50.419170" lon="8.673236">
        <ele>188.461847</ele>
        <time>2026-05-04T11:57:27.891Z</time>
      </trkpt>
      <trkpt lat="50.419454" lon="8.672604">
        <ele>189.006795</ele>
        <time>2026-05-04T11:57:37.223Z</time>
      </trkpt>
      <trkpt lat="50.419501" lon="8.672321">
        <ele>189.212871</ele>
        <time>2026-05-04T11:57:40.758Z</time>
      </trkpt>
      <trkpt lat="50.419487" lon="8.672121">
        <ele>189.354647</ele>
        <time>2026-05-04T11:57:43.240Z</time>
      </trkpt>
      <trkpt lat="50.419465" lon="8.671865">
        <ele>189.536669</ele>
        <time>2026-05-04T11:57:46.447Z</time>
      </trkpt>
      <trkpt lat="50.419453" lon="8.671686">
        <ele>189.663496</ele>
        <time>2026-05-04T11:57:48.706Z</time>
      </trkpt>
      <trkpt lat="50.419460" lon="8.671437">
        <ele>189.839123</ele>
        <time>2026-05-04T11:57:51.848Z</time>
      </trkpt>
      <trkpt lat="50.419515" lon="8.671139">
        <ele>190.098558</ele>
        <time>2026-05-04T11:57:55.731Z</time>
      </trkpt>
      <trkpt lat="50.419816" lon="8.670071">
        <ele>191.359561</ele>
        <time>2026-05-04T11:58:09.906Z</time>
      </trkpt>
      <trkpt lat="50.421457" lon="8.664661">
        <ele>198.329208</ele>
        <time>2026-05-04T11:59:34.937Z</time>
      </trkpt>
      <trkpt lat="50.422091" lon="8.662528">
        <ele>202.058966</ele>
        <time>2026-05-04T12:00:12.879Z</time>
      </trkpt>
      <trkpt lat="50.422744" lon="8.660335">
        <ele>206.729806</ele>
        <time>2026-05-04T12:00:53.669Z</time>
      </trkpt>
      <trkpt lat="50.423154" lon="8.658990">
        <ele>210.071210</ele>
        <time>2026-05-04T12:01:22.438Z</time>
      </trkpt>
      <trkpt lat="50.423361" lon="8.658326">
        <ele>211.591361</ele>
        <time>2026-05-04T12:01:37.105Z</time>
      </trkpt>
      <trkpt lat="50.423553" lon="8.657186">
        <ele>213.215343</ele>
        <time>2026-05-04T12:01:57.333Z</time>
      </trkpt>
      <trkpt lat="50.423635" lon="8.656560">
        <ele>214.095524</ele>
        <time>2026-05-04T12:02:06.317Z</time>
      </trkpt>
      <trkpt lat="50.423844" lon="8.656957">
        <ele>214.804795</ele>
        <time>2026-05-04T12:02:12.723Z</time>
      </trkpt>
      <trkpt lat="50.424042" lon="8.657275">
        <ele>215.255665</ele>
        <time>2026-05-04T12:02:17.767Z</time>
      </trkpt>
      <trkpt lat="50.425320" lon="8.659324">
        <ele>215.031451</ele>
        <time>2026-05-04T12:02:43.578Z</time>
      </trkpt>
      <trkpt lat="50.425298" lon="8.659493">
        <ele>214.949894</ele>
        <time>2026-05-04T12:02:45.546Z</time>
      </trkpt>
      <trkpt lat="50.425519" lon="8.659642">
        <ele>214.771390</ele>
        <time>2026-05-04T12:02:48.583Z</time>
      </trkpt>
      <trkpt lat="50.426651" lon="8.661561">
        <ele>213.661155</ele>
        <time>2026-05-04T12:03:09.253Z</time>
      </trkpt>
      <trkpt lat="50.426686" lon="8.661687">
        <ele>213.630950</ele>
        <time>2026-05-04T12:03:10.517Z</time>
      </trkpt>
      <trkpt lat="50.426690" lon="8.662001">
        <ele>213.561937</ele>
        <time>2026-05-04T12:03:13.281Z</time>
      </trkpt>
      <trkpt lat="50.426782" lon="8.662090">
        <ele>213.524661</ele>
        <time>2026-05-04T12:03:14.903Z</time>
      </trkpt>
      <trkpt lat="50.426828" lon="8.662132">
        <ele>213.506305</ele>
        <time>2026-05-04T12:03:15.632Z</time>
      </trkpt>
      <trkpt lat="50.426901" lon="8.662209">
        <ele>213.475969</ele>
        <time>2026-05-04T12:03:17.024Z</time>
      </trkpt>
      <trkpt lat="50.426950" lon="8.662151">
        <ele>213.454800</ele>
        <time>2026-05-04T12:03:17.885Z</time>
      </trkpt>
      <trkpt lat="50.427040" lon="8.662144">
        <ele>213.423719</ele>
        <time>2026-05-04T12:03:19.314Z</time>
      </trkpt>
      <trkpt lat="50.427548" lon="8.662935">
        <ele>213.176909</ele>
        <time>2026-05-04T12:03:29.675Z</time>
      </trkpt>
      <trkpt lat="50.427666" lon="8.663060">
        <ele>213.115280</ele>
        <time>2026-05-04T12:03:31.638Z</time>
      </trkpt>
      <trkpt lat="50.427746" lon="8.663050">
        <ele>213.072264</ele>
        <time>2026-05-04T12:03:32.717Z</time>
      </trkpt>
      <trkpt lat="50.428018" lon="8.663429">
        <ele>212.877316</ele>
        <time>2026-05-04T12:03:39.163Z</time>
      </trkpt>
      <trkpt lat="50.428209" lon="8.663627">
        <ele>212.754628</ele>
        <time>2026-05-04T12:03:43.155Z</time>
      </trkpt>
      <trkpt lat="50.428955" lon="8.664129">
        <ele>212.319573</ele>
        <time>2026-05-04T12:03:57.636Z</time>
      </trkpt>
      <trkpt lat="50.429048" lon="8.664182">
        <ele>212.266540</ele>
        <time>2026-05-04T12:03:59.463Z</time>
      </trkpt>
      <trkpt lat="50.429394" lon="8.664267">
        <ele>212.331148</ele>
        <time>2026-05-04T12:04:04.511Z</time>
      </trkpt>
      <trkpt lat="50.429653" lon="8.664225">
        <ele>212.519163</ele>
        <time>2026-05-04T12:04:08.734Z</time>
      </trkpt>
      <trkpt lat="50.429857" lon="8.664175">
        <ele>212.668253</ele>
        <time>2026-05-04T12:04:12.247Z</time>
      </trkpt>
      <trkpt lat="50.430019" lon="8.664176">
        <ele>212.785231</ele>
        <time>2026-05-04T12:04:15.159Z</time>
      </trkpt>
      <trkpt lat="50.430478" lon="8.664301">
        <ele>213.121618</ele>
        <time>2026-05-04T12:04:24.135Z</time>
      </trkpt>
      <trkpt lat="50.430779" lon="8.664377">
        <ele>213.341759</ele>
        <time>2026-05-04T12:04:30.196Z</time>
      </trkpt>
      <trkpt lat="50.431122" lon="8.664352">
        <ele>213.581303</ele>
        <time>2026-05-04T12:04:37.061Z</time>
      </trkpt>
      <trkpt lat="50.431204" lon="8.664325">
        <ele>213.636945</ele>
        <time>2026-05-04T12:04:38.710Z</time>
      </trkpt>
      <trkpt lat="50.431561" lon="8.664304">
        <ele>213.874200</ele>
        <time>2026-05-04T12:04:45.740Z</time>
      </trkpt>
      <trkpt lat="50.432078" lon="8.664407">
        <ele>214.220300</ele>
        <time>2026-05-04T12:04:55.300Z</time>
      </trkpt>
      <trkpt lat="50.432506" lon="8.664493">
        <ele>214.506859</ele>
        <time>2026-05-04T12:05:02.305Z</time>
      </trkpt>
      <trkpt lat="50.432613" lon="8.664514">
        <ele>214.578472</ele>
        <time>2026-05-04T12:05:03.928Z</time>
      </trkpt>
      <trkpt lat="50.433352" lon="8.664626">
        <ele>214.619905</ele>
        <time>2026-05-04T12:05:14.182Z</time>
      </trkpt>
      <trkpt lat="50.433622" lon="8.664665">
        <ele>214.592479</ele>
        <time>2026-05-04T12:05:17.783Z</time>
      </trkpt>
      <trkpt lat="50.434724" lon="8.664858">
        <ele>214.565303</ele>
        <time>2026-05-04T12:05:33.714Z</time>
      </trkpt>
      <trkpt lat="50.434745" lon="8.664971">
        <ele>214.594873</ele>
        <time>2026-05-04T12:05:34.965Z</time>
      </trkpt>
      <trkpt lat="50.434813" lon="8.665021">
        <ele>214.624487</ele>
        <time>2026-05-04T12:05:36.217Z</time>
      </trkpt>
      <trkpt lat="50.434866" lon="8.664995">
        <ele>214.646387</ele>
        <time>2026-05-04T12:05:37.163Z</time>
      </trkpt>
      <trkpt lat="50.434906" lon="8.664884">
        <ele>214.678425</ele>
        <time>2026-05-04T12:05:38.554Z</time>
      </trkpt>
      <trkpt lat="50.435187" lon="8.664917">
        <ele>214.789559</ele>
        <time>2026-05-04T12:05:43.523Z</time>
      </trkpt>
      <trkpt lat="50.435329" lon="8.664940">
        <ele>214.845860</ele>
        <time>2026-05-04T12:05:46.110Z</time>
      </trkpt>
      <trkpt lat="50.435490" lon="8.664965">
        <ele>214.909667</ele>
        <time>2026-05-04T12:05:49.101Z</time>
      </trkpt>
      <trkpt lat="50.436514" lon="8.665128">
        <ele>214.890355</ele>
        <time>2026-05-04T12:06:06.675Z</time>
      </trkpt>
      <trkpt lat="50.437252" lon="8.665237">
        <ele>214.037513</ele>
        <time>2026-05-04T12:06:15.760Z</time>
      </trkpt>
      <trkpt lat="50.437525" lon="8.665479">
        <ele>213.676813</ele>
        <time>2026-05-04T12:06:19.179Z</time>
      </trkpt>
      <trkpt lat="50.437605" lon="8.665589">
        <ele>213.554464</ele>
        <time>2026-05-04T12:06:20.313Z</time>
      </trkpt>
      <trkpt lat="50.437702" lon="8.665843">
        <ele>213.337440</ele>
        <time>2026-05-04T12:06:22.358Z</time>
      </trkpt>
      <trkpt lat="50.437758" lon="8.666144">
        <ele>213.097434</ele>
        <time>2026-05-04T12:06:24.517Z</time>
      </trkpt>
      <trkpt lat="50.437782" lon="8.666262">
        <ele>212.975737</ele>
        <time>2026-05-04T12:06:25.355Z</time>
      </trkpt>
      <trkpt lat="50.437803" lon="8.666367">
        <ele>212.867613</ele>
        <time>2026-05-04T12:06:26.123Z</time>
      </trkpt>
      <trkpt lat="50.437826" lon="8.666487">
        <ele>212.744496</ele>
        <time>2026-05-04T12:06:26.980Z</time>
      </trkpt>
      <trkpt lat="50.437901" lon="8.666446">
        <ele>212.621995</ele>
        <time>2026-05-04T12:06:28.219Z</time>
      </trkpt>
      <trkpt lat="50.438038" lon="8.666356">
        <ele>212.392918</ele>
        <time>2026-05-04T12:06:30.527Z</time>
      </trkpt>
      <trkpt lat="50.438140" lon="8.666343">
        <ele>212.235063</ele>
        <time>2026-05-04T12:06:32.129Z</time>
      </trkpt>
      <trkpt lat="50.439830" lon="8.666135">
        <ele>209.841665</ele>
        <time>2026-05-04T12:07:00.812Z</time>
      </trkpt>
      <trkpt lat="50.440368" lon="8.665999">
        <ele>209.251643</ele>
        <time>2026-05-04T12:07:10.112Z</time>
      </trkpt>
      <trkpt lat="50.441268" lon="8.665705">
        <ele>208.546472</ele>
        <time>2026-05-04T12:07:25.887Z</time>
      </trkpt>
      <trkpt lat="50.441348" lon="8.665702">
        <ele>208.617543</ele>
        <time>2026-05-04T12:07:27.360Z</time>
      </trkpt>
      <trkpt lat="50.441412" lon="8.665656">
        <ele>208.680056</ele>
        <time>2026-05-04T12:07:28.709Z</time>
      </trkpt>
      <trkpt lat="50.441477" lon="8.665616">
        <ele>208.742060</ele>
        <time>2026-05-04T12:07:30.032Z</time>
      </trkpt>
      <trkpt lat="50.441566" lon="8.665562">
        <ele>208.826801</ele>
        <time>2026-05-04T12:07:31.902Z</time>
      </trkpt>
      <trkpt lat="50.441604" lon="8.665474">
        <ele>208.886939</ele>
        <time>2026-05-04T12:07:33.239Z</time>
      </trkpt>
      <trkpt lat="50.441939" lon="8.665268">
        <ele>209.206467</ele>
        <time>2026-05-04T12:07:40.916Z</time>
      </trkpt>
      <trkpt lat="50.442916" lon="8.664554">
        <ele>210.542487</ele>
        <time>2026-05-04T12:08:10.598Z</time>
      </trkpt>
      <trkpt lat="50.444679" lon="8.663154">
        <ele>216.728573</ele>
        <time>2026-05-04T12:09:17.487Z</time>
      </trkpt>
      <trkpt lat="50.444839" lon="8.663076">
        <ele>217.257402</ele>
        <time>2026-05-04T12:09:23.221Z</time>
      </trkpt>
      <trkpt lat="50.444856" lon="8.663063">
        <ele>217.317089</ele>
        <time>2026-05-04T12:09:23.840Z</time>
      </trkpt>
      <trkpt lat="50.445106" lon="8.662872">
        <ele>218.194674</ele>
        <time>2026-05-04T12:09:33.215Z</time>
      </trkpt>
      <trkpt lat="50.445263" lon="8.662843">
        <ele>218.693672</ele>
        <time>2026-05-04T12:09:38.514Z</time>
      </trkpt>
      <trkpt lat="50.445277" lon="8.662770">
        <ele>218.846923</ele>
        <time>2026-05-04T12:09:40.113Z</time>
      </trkpt>
      <trkpt lat="50.445286" lon="8.662696">
        <ele>218.998363</ele>
        <time>2026-05-04T12:09:41.713Z</time>
      </trkpt>
      <trkpt lat="50.445323" lon="8.662667">
        <ele>219.128896</ele>
        <time>2026-05-04T12:09:43.106Z</time>
      </trkpt>
      <trkpt lat="50.445392" lon="8.662626">
        <ele>219.361770</ele>
        <time>2026-05-04T12:09:45.530Z</time>
      </trkpt>
      <trkpt lat="50.445506" lon="8.662471">
        <ele>219.837762</ele>
        <time>2026-05-04T12:09:50.489Z</time>
      </trkpt>
      <trkpt lat="50.447255" lon="8.660848">
        <ele>224.888636</ele>
        <time>2026-05-04T12:10:52.982Z</time>
      </trkpt>
      <trkpt lat="50.448386" lon="8.659906">
        <ele>226.708438</ele>
        <time>2026-05-04T12:11:22.663Z</time>
      </trkpt>
      <trkpt lat="50.448910" lon="8.659529">
        <ele>227.416040</ele>
        <time>2026-05-04T12:11:36.360Z</time>
      </trkpt>
      <trkpt lat="50.449131" lon="8.659395">
        <ele>227.814017</ele>
        <time>2026-05-04T12:11:42.533Z</time>
      </trkpt>
      <trkpt lat="50.451509" lon="8.657828">
        <ele>236.033942</ele>
        <time>2026-05-04T12:12:54.779Z</time>
      </trkpt>
      <trkpt lat="50.452148" lon="8.657557">
        <ele>238.398941</ele>
        <time>2026-05-04T12:13:16.229Z</time>
      </trkpt>
      <trkpt lat="50.452191" lon="8.657497">
        <ele>238.604465</ele>
        <time>2026-05-04T12:13:18.020Z</time>
      </trkpt>
      <trkpt lat="50.452312" lon="8.657484">
        <ele>239.037822</ele>
        <time>2026-05-04T12:13:21.680Z</time>
      </trkpt>
      <trkpt lat="50.452675" lon="8.657342">
        <ele>239.572984</ele>
        <time>2026-05-04T12:13:32.116Z</time>
      </trkpt>
      <trkpt lat="50.452916" lon="8.657196">
        <ele>239.689614</ele>
        <time>2026-05-04T12:13:38.299Z</time>
      </trkpt>
      <trkpt lat="50.453084" lon="8.656936">
        <ele>239.796109</ele>
        <time>2026-05-04T12:13:43.064Z</time>
      </trkpt>
      <trkpt lat="50.453278" lon="8.656507">
        <ele>239.947382</ele>
        <time>2026-05-04T12:13:48.484Z</time>
      </trkpt>
      <trkpt lat="50.453533" lon="8.656379">
        <ele>240.068257</ele>
        <time>2026-05-04T12:13:51.887Z</time>
      </trkpt>
      <trkpt lat="50.454565" lon="8.655862">
        <ele>239.296282</ele>
        <time>2026-05-04T12:14:03.476Z</time>
      </trkpt>
      <trkpt lat="50.454613" lon="8.655815">
        <ele>239.210061</ele>
        <time>2026-05-04T12:14:04.072Z</time>
      </trkpt>
      <trkpt lat="50.455098" lon="8.654830">
        <ele>238.001590</ele>
        <time>2026-05-04T12:14:12.847Z</time>
      </trkpt>
      <trkpt lat="50.455317" lon="8.654399">
        <ele>237.603200</ele>
        <time>2026-05-04T12:14:17.520Z</time>
      </trkpt>
      <trkpt lat="50.455652" lon="8.653813">
        <ele>238.551303</ele>
        <time>2026-05-04T12:14:26.334Z</time>
      </trkpt>
      <trkpt lat="50.456646" lon="8.652105">
        <ele>241.259928</ele>
        <time>2026-05-04T12:15:04.857Z</time>
      </trkpt>
      <trkpt lat="50.457079" lon="8.651322">
        <ele>242.272896</ele>
        <time>2026-05-04T12:15:21.186Z</time>
      </trkpt>
      <trkpt lat="50.457104" lon="8.651184">
        <ele>242.413031</ele>
        <time>2026-05-04T12:15:23.245Z</time>
      </trkpt>
      <trkpt lat="50.457186" lon="8.651187">
        <ele>242.538861</ele>
        <time>2026-05-04T12:15:24.940Z</time>
      </trkpt>
      <trkpt lat="50.457358" lon="8.651207">
        <ele>242.803449</ele>
        <time>2026-05-04T12:15:28.429Z</time>
      </trkpt>
      <trkpt lat="50.457433" lon="8.651215">
        <ele>242.918772</ele>
        <time>2026-05-04T12:15:29.891Z</time>
      </trkpt>
      <trkpt lat="50.457977" lon="8.651245">
        <ele>243.630992</ele>
        <time>2026-05-04T12:15:38.678Z</time>
      </trkpt>
      <trkpt lat="50.458283" lon="8.651202">
        <ele>243.226758</ele>
        <time>2026-05-04T12:15:42.596Z</time>
      </trkpt>
      <trkpt lat="50.458767" lon="8.651135">
        <ele>242.587457</ele>
        <time>2026-05-04T12:15:48.324Z</time>
      </trkpt>
      <trkpt lat="50.459398" lon="8.650937">
        <ele>241.740801</ele>
        <time>2026-05-04T12:15:55.478Z</time>
      </trkpt>
      <trkpt lat="50.459906" lon="8.650721">
        <ele>241.010188</ele>
        <time>2026-05-04T12:16:01.270Z</time>
      </trkpt>
      <trkpt lat="50.459991" lon="8.650714">
        <ele>240.882532</ele>
        <time>2026-05-04T12:16:02.226Z</time>
      </trkpt>
      <trkpt lat="50.460078" lon="8.650802">
        <ele>240.727340</ele>
        <time>2026-05-04T12:16:03.368Z</time>
      </trkpt>
      <trkpt lat="50.460324" lon="8.651497">
        <ele>239.968099</ele>
        <time>2026-05-04T12:16:08.978Z</time>
      </trkpt>
      <trkpt lat="50.460382" lon="8.651591">
        <ele>239.843113</ele>
        <time>2026-05-04T12:16:09.918Z</time>
      </trkpt>
      <trkpt lat="50.460445" lon="8.651598">
        <ele>239.748391</ele>
        <time>2026-05-04T12:16:10.667Z</time>
      </trkpt>
      <trkpt lat="50.460730" lon="8.651453">
        <ele>239.299094</ele>
        <time>2026-05-04T12:16:14.281Z</time>
      </trkpt>
      <trkpt lat="50.461148" lon="8.651125">
        <ele>238.606485</ele>
        <time>2026-05-04T12:16:20.004Z</time>
      </trkpt>
      <trkpt lat="50.461540" lon="8.650721">
        <ele>238.130895</ele>
        <time>2026-05-04T12:16:25.735Z</time>
      </trkpt>
      <trkpt lat="50.461635" lon="8.650686">
        <ele>238.031912</ele>
        <time>2026-05-04T12:16:26.918Z</time>
      </trkpt>
      <trkpt lat="50.461746" lon="8.650694">
        <ele>237.919195</ele>
        <time>2026-05-04T12:16:28.276Z</time>
      </trkpt>
      <trkpt lat="50.462249" lon="8.651131">
        <ele>237.336113</ele>
        <time>2026-05-04T12:16:35.465Z</time>
      </trkpt>
      <trkpt lat="50.462626" lon="8.651412">
        <ele>236.912818</ele>
        <time>2026-05-04T12:16:40.446Z</time>
      </trkpt>
      <trkpt lat="50.462922" lon="8.651574">
        <ele>236.652346</ele>
        <time>2026-05-04T12:16:44.113Z</time>
      </trkpt>
      <trkpt lat="50.463691" lon="8.651734">
        <ele>236.087069</ele>
        <time>2026-05-04T12:16:53.821Z</time>
      </trkpt>
      <trkpt lat="50.463737" lon="8.651742">
        <ele>236.053344</ele>
        <time>2026-05-04T12:16:54.428Z</time>
      </trkpt>
      <trkpt lat="50.464516" lon="8.651890">
        <ele>235.485660</ele>
        <time>2026-05-04T12:17:04.845Z</time>
      </trkpt>
      <trkpt lat="50.464738" lon="8.651926">
        <ele>235.422232</ele>
        <time>2026-05-04T12:17:07.953Z</time>
      </trkpt>
      <trkpt lat="50.464770" lon="8.651932">
        <ele>235.413072</ele>
        <time>2026-05-04T12:17:08.404Z</time>
      </trkpt>
      <trkpt lat="50.465139" lon="8.651997">
        <ele>235.307544</ele>
        <time>2026-05-04T12:17:13.681Z</time>
      </trkpt>
      <trkpt lat="50.466046" lon="8.652161">
        <ele>235.048068</ele>
        <time>2026-05-04T12:17:25.907Z</time>
      </trkpt>
      <trkpt lat="50.466826" lon="8.652308">
        <ele>235.322094</ele>
        <time>2026-05-04T12:17:37.665Z</time>
      </trkpt>
      <trkpt lat="50.466913" lon="8.652324">
        <ele>235.378479</ele>
        <time>2026-05-04T12:17:39.163Z</time>
      </trkpt>
      <trkpt lat="50.466998" lon="8.652339">
        <ele>235.433538</ele>
        <time>2026-05-04T12:17:40.619Z</time>
      </trkpt>
      <trkpt lat="50.467128" lon="8.652361">
        <ele>235.517703</ele>
        <time>2026-05-04T12:17:42.905Z</time>
      </trkpt>
      <trkpt lat="50.467713" lon="8.652462">
        <ele>235.896537</ele>
        <time>2026-05-04T12:17:54.053Z</time>
      </trkpt>
      <trkpt lat="50.467742" lon="8.652468">
        <ele>235.915365</ele>
        <time>2026-05-04T12:17:54.637Z</time>
      </trkpt>
      <trkpt lat="50.467860" lon="8.652493">
        <ele>235.992010</ele>
        <time>2026-05-04T12:17:57.106Z</time>
      </trkpt>
      <trkpt lat="50.468417" lon="8.652589">
        <ele>236.114537</ele>
        <time>2026-05-04T12:18:08.138Z</time>
      </trkpt>
      <trkpt lat="50.468919" lon="8.652677">
        <ele>236.084131</ele>
        <time>2026-05-04T12:18:16.892Z</time>
      </trkpt>
      <trkpt lat="50.469060" lon="8.652703">
        <ele>236.075585</ele>
        <time>2026-05-04T12:18:18.990Z</time>
      </trkpt>
      <trkpt lat="50.469499" lon="8.652981">
        <ele>236.047093</ele>
        <time>2026-05-04T12:18:25.148Z</time>
      </trkpt>
      <trkpt lat="50.469861" lon="8.653123">
        <ele>235.964884</ele>
        <time>2026-05-04T12:18:29.537Z</time>
      </trkpt>
      <trkpt lat="50.470440" lon="8.653339">
        <ele>234.858822</ele>
        <time>2026-05-04T12:18:36.139Z</time>
      </trkpt>
      <trkpt lat="50.470705" lon="8.653446">
        <ele>234.350282</ele>
        <time>2026-05-04T12:18:39.146Z</time>
      </trkpt>
      <trkpt lat="50.471174" lon="8.653601">
        <ele>233.459513</ele>
        <time>2026-05-04T12:18:44.409Z</time>
      </trkpt>
      <trkpt lat="50.471966" lon="8.653642">
        <ele>232.209570</ele>
        <time>2026-05-04T12:18:52.978Z</time>
      </trkpt>
      <trkpt lat="50.472266" lon="8.653606">
        <ele>231.829195</ele>
        <time>2026-05-04T12:18:56.401Z</time>
      </trkpt>
      <trkpt lat="50.472310" lon="8.653630">
        <ele>231.770312</ele>
        <time>2026-05-04T12:18:56.947Z</time>
      </trkpt>
      <trkpt lat="50.472415" lon="8.653917">
        <ele>231.503951</ele>
        <time>2026-05-04T12:18:59.513Z</time>
      </trkpt>
      <trkpt lat="50.472538" lon="8.654287">
        <ele>231.168077</ele>
        <time>2026-05-04T12:19:02.812Z</time>
      </trkpt>
      <trkpt lat="50.472636" lon="8.654455">
        <ele>230.984712</ele>
        <time>2026-05-04T12:19:04.662Z</time>
      </trkpt>
      <trkpt lat="50.472918" lon="8.654611">
        <ele>230.606747</ele>
        <time>2026-05-04T12:19:08.567Z</time>
      </trkpt>
      <trkpt lat="50.473437" lon="8.654898">
        <ele>229.932030</ele>
        <time>2026-05-04T12:19:15.559Z</time>
      </trkpt>
      <trkpt lat="50.474038" lon="8.655195">
        <ele>229.168874</ele>
        <time>2026-05-04T12:19:24.096Z</time>
      </trkpt>
      <trkpt lat="50.474458" lon="8.655296">
        <ele>228.654199</ele>
        <time>2026-05-04T12:19:28.927Z</time>
      </trkpt>
      <trkpt lat="50.474449" lon="8.655437">
        <ele>228.544956</ele>
        <time>2026-05-04T12:19:29.909Z</time>
      </trkpt>
      <trkpt lat="50.474648" lon="8.655517">
        <ele>228.296140</ele>
        <time>2026-05-04T12:19:32.092Z</time>
      </trkpt>
      <trkpt lat="50.474758" lon="8.655545">
        <ele>228.098052</ele>
        <time>2026-05-04T12:19:33.275Z</time>
      </trkpt>
      <trkpt lat="50.475795" lon="8.655812">
        <ele>225.675159</ele>
        <time>2026-05-04T12:19:44.244Z</time>
      </trkpt>
      <trkpt lat="50.476716" lon="8.656123">
        <ele>223.977416</ele>
        <time>2026-05-04T12:19:54.495Z</time>
      </trkpt>
      <trkpt lat="50.477252" lon="8.656287">
        <ele>223.746595</ele>
        <time>2026-05-04T12:20:01.176Z</time>
      </trkpt>
      <trkpt lat="50.477624" lon="8.656275">
        <ele>223.589318</ele>
        <time>2026-05-04T12:20:06.410Z</time>
      </trkpt>
      <trkpt lat="50.478059" lon="8.656193">
        <ele>223.404127</ele>
        <time>2026-05-04T12:20:14.135Z</time>
      </trkpt>
      <trkpt lat="50.478521" lon="8.656318">
        <ele>223.367929</ele>
        <time>2026-05-04T12:20:23.265Z</time>
      </trkpt>
      <trkpt lat="50.478714" lon="8.656401">
        <ele>223.399801</ele>
        <time>2026-05-04T12:20:26.829Z</time>
      </trkpt>
      <trkpt lat="50.478802" lon="8.656475">
        <ele>223.415698</ele>
        <time>2026-05-04T12:20:28.474Z</time>
      </trkpt>
      <trkpt lat="50.479466" lon="8.656825">
        <ele>223.527253</ele>
        <time>2026-05-04T12:20:39.052Z</time>
      </trkpt>
      <trkpt lat="50.480230" lon="8.657066">
        <ele>223.448045</ele>
        <time>2026-05-04T12:20:49.499Z</time>
      </trkpt>
      <trkpt lat="50.481457" lon="8.657334">
        <ele>222.673431</ele>
        <time>2026-05-04T12:21:05.921Z</time>
      </trkpt>
      <trkpt lat="50.482019" lon="8.657362">
        <ele>221.970777</ele>
        <time>2026-05-04T12:21:12.998Z</time>
      </trkpt>
      <trkpt lat="50.483855" lon="8.657266">
        <ele>218.186606</ele>
        <time>2026-05-04T12:21:32.778Z</time>
      </trkpt>
      <trkpt lat="50.485869" lon="8.657068">
        <ele>213.876464</ele>
        <time>2026-05-04T12:21:53.833Z</time>
      </trkpt>
      <trkpt lat="50.488121" lon="8.657044">
        <ele>212.739462</ele>
        <time>2026-05-04T12:22:25.488Z</time>
      </trkpt>
      <trkpt lat="50.488594" lon="8.657042">
        <ele>212.799528</ele>
        <time>2026-05-04T12:22:33.802Z</time>
      </trkpt>
      <trkpt lat="50.490153" lon="8.656992">
        <ele>212.849439</ele>
        <time>2026-05-04T12:22:59.439Z</time>
      </trkpt>
      <trkpt lat="50.491652" lon="8.656947">
        <ele>211.584180</ele>
        <time>2026-05-04T12:23:18.072Z</time>
      </trkpt>
      <trkpt lat="50.491851" lon="8.657014">
        <ele>211.299711</ele>
        <time>2026-05-04T12:23:20.357Z</time>
      </trkpt>
      <trkpt lat="50.492040" lon="8.657091">
        <ele>211.026801</ele>
        <time>2026-05-04T12:23:22.522Z</time>
      </trkpt>
      <trkpt lat="50.492132" lon="8.657129">
        <ele>210.893839</ele>
        <time>2026-05-04T12:23:23.583Z</time>
      </trkpt>
      <trkpt lat="50.492507" lon="8.657277">
        <ele>210.353401</ele>
        <time>2026-05-04T12:23:27.891Z</time>
      </trkpt>
      <trkpt lat="50.492637" lon="8.657198">
        <ele>209.957953</ele>
        <time>2026-05-04T12:23:29.436Z</time>
      </trkpt>
      <trkpt lat="50.492746" lon="8.657369">
        <ele>209.501753</ele>
        <time>2026-05-04T12:23:31.107Z</time>
      </trkpt>
      <trkpt lat="50.492816" lon="8.657407">
        <ele>209.282370</ele>
        <time>2026-05-04T12:23:31.900Z</time>
      </trkpt>
      <trkpt lat="50.492887" lon="8.657445">
        <ele>209.060184</ele>
        <time>2026-05-04T12:23:32.698Z</time>
      </trkpt>
      <trkpt lat="50.492940" lon="8.657507">
        <ele>208.864472</ele>
        <time>2026-05-04T12:23:33.394Z</time>
      </trkpt>
      <trkpt lat="50.492959" lon="8.657658">
        <ele>208.574388</ele>
        <time>2026-05-04T12:23:34.431Z</time>
      </trkpt>
      <trkpt lat="50.492877" lon="8.658070">
        <ele>207.760830</ele>
        <time>2026-05-04T12:23:37.316Z</time>
      </trkpt>
      <trkpt lat="50.492821" lon="8.658457">
        <ele>207.012867</ele>
        <time>2026-05-04T12:23:39.938Z</time>
      </trkpt>
      <trkpt lat="50.492734" lon="8.658903">
        <ele>206.133717</ele>
        <time>2026-05-04T12:23:42.926Z</time>
      </trkpt>
      <trkpt lat="50.492528" lon="8.660005">
        <ele>203.880408</ele>
        <time>2026-05-04T12:23:50.014Z</time>
      </trkpt>
      <trkpt lat="50.492466" lon="8.660331">
        <ele>203.184506</ele>
        <time>2026-05-04T12:23:52.081Z</time>
      </trkpt>
      <trkpt lat="50.492453" lon="8.660404">
        <ele>203.029464</ele>
        <time>2026-05-04T12:23:52.545Z</time>
      </trkpt>
      <trkpt lat="50.492442" lon="8.660459">
        <ele>202.911548</ele>
        <time>2026-05-04T12:23:52.900Z</time>
      </trkpt>
      <trkpt lat="50.492311" lon="8.661138">
        <ele>201.460375</ele>
        <time>2026-05-04T12:23:57.331Z</time>
      </trkpt>
      <trkpt lat="50.492120" lon="8.662059">
        <ele>199.479146</ele>
        <time>2026-05-04T12:24:03.823Z</time>
      </trkpt>
      <trkpt lat="50.491950" lon="8.662535">
        <ele>199.212242</ele>
        <time>2026-05-04T12:24:07.993Z</time>
      </trkpt>
      <trkpt lat="50.491906" lon="8.662714">
        <ele>199.205463</ele>
        <time>2026-05-04T12:24:09.631Z</time>
      </trkpt>
      <trkpt lat="50.491908" lon="8.662833">
        <ele>199.201258</ele>
        <time>2026-05-04T12:24:10.742Z</time>
      </trkpt>
      <trkpt lat="50.491959" lon="8.662925">
        <ele>199.196947</ele>
        <time>2026-05-04T12:24:11.904Z</time>
      </trkpt>
      <trkpt lat="50.492167" lon="8.663037">
        <ele>199.184738</ele>
        <time>2026-05-04T12:24:15.304Z</time>
      </trkpt>
      <trkpt lat="50.492464" lon="8.663104">
        <ele>199.168077</ele>
        <time>2026-05-04T12:24:20.248Z</time>
      </trkpt>
      <trkpt lat="50.493158" lon="8.663201">
        <ele>199.129388</ele>
        <time>2026-05-04T12:24:32.212Z</time>
      </trkpt>
      <trkpt lat="50.493407" lon="8.663313">
        <ele>199.226653</ele>
        <time>2026-05-04T12:24:36.580Z</time>
      </trkpt>
      <trkpt lat="50.493654" lon="8.663502">
        <ele>199.349962</ele>
        <time>2026-05-04T12:24:41.508Z</time>
      </trkpt>
      <trkpt lat="50.494167" lon="8.664139">
        <ele>199.643409</ele>
        <time>2026-05-04T12:24:53.637Z</time>
      </trkpt>
      <trkpt lat="50.494457" lon="8.664481">
        <ele>199.806142</ele>
        <time>2026-05-04T12:24:59.299Z</time>
      </trkpt>
      <trkpt lat="50.494673" lon="8.664939">
        <ele>199.905099</ele>
        <time>2026-05-04T12:25:04.129Z</time>
      </trkpt>
      <trkpt lat="50.494790" lon="8.665227">
        <ele>199.820990</ele>
        <time>2026-05-04T12:25:07.291Z</time>
      </trkpt>
      <trkpt lat="50.494886" lon="8.665465">
        <ele>199.751626</ele>
        <time>2026-05-04T12:25:09.956Z</time>
      </trkpt>
      <trkpt lat="50.495008" lon="8.665755">
        <ele>199.666051</ele>
        <time>2026-05-04T12:25:13.102Z</time>
      </trkpt>
      <trkpt lat="50.495163" lon="8.666077">
        <ele>199.566663</ele>
        <time>2026-05-04T12:25:16.272Z</time>
      </trkpt>
      <trkpt lat="50.495415" lon="8.666524">
        <ele>199.419655</ele>
        <time>2026-05-04T12:25:20.897Z</time>
      </trkpt>
      <trkpt lat="50.495472" lon="8.666579">
        <ele>199.393777</ele>
        <time>2026-05-04T12:25:21.685Z</time>
      </trkpt>
      <trkpt lat="50.495499" lon="8.666605">
        <ele>199.381526</ele>
        <time>2026-05-04T12:25:22.130Z</time>
      </trkpt>
      <trkpt lat="50.496080" lon="8.666637">
        <ele>199.562554</ele>
        <time>2026-05-04T12:25:30.220Z</time>
      </trkpt>
      <trkpt lat="50.496679" lon="8.666698">
        <ele>200.478129</ele>
        <time>2026-05-04T12:25:41.205Z</time>
      </trkpt>
      <trkpt lat="50.496685" lon="8.666840">
        <ele>200.616213</ele>
        <time>2026-05-04T12:25:43.038Z</time>
      </trkpt>
      <trkpt lat="50.496700" lon="8.667269">
        <ele>201.033093</ele>
        <time>2026-05-04T12:25:49.013Z</time>
      </trkpt>
      <trkpt lat="50.496707" lon="8.667400">
        <ele>201.160647</ele>
        <time>2026-05-04T12:25:50.927Z</time>
      </trkpt>
      <trkpt lat="50.496725" lon="8.667623">
        <ele>201.378755</ele>
        <time>2026-05-04T12:25:54.440Z</time>
      </trkpt>
      <trkpt lat="50.496918" lon="8.667552">
        <ele>201.681093</ele>
        <time>2026-05-04T12:25:59.508Z</time>
      </trkpt>
      <trkpt lat="50.497386" lon="8.667344">
        <ele>203.178769</ele>
        <time>2026-05-04T12:26:12.804Z</time>
      </trkpt>
      <trkpt lat="50.497718" lon="8.667310">
        <ele>204.556625</ele>
        <time>2026-05-04T12:26:22.974Z</time>
      </trkpt>
      <trkpt lat="50.497869" lon="8.667346">
        <ele>205.189125</ele>
        <time>2026-05-04T12:26:27.992Z</time>
      </trkpt>
      <trkpt lat="50.498002" lon="8.667409">
        <ele>205.764391</ele>
        <time>2026-05-04T12:26:32.609Z</time>
      </trkpt>
      <trkpt lat="50.498214" lon="8.667582">
        <ele>206.753603</ele>
        <time>2026-05-04T12:26:40.351Z</time>
      </trkpt>
      <trkpt lat="50.498366" lon="8.667920">
        <ele>207.844055</ele>
        <time>2026-05-04T12:26:48.897Z</time>
      </trkpt>
      <trkpt lat="50.498512" lon="8.668448">
        <ele>209.360721</ele>
        <time>2026-05-04T12:27:01.315Z</time>
      </trkpt>
      <trkpt lat="50.498570" lon="8.668677">
        <ele>210.076341</ele>
        <time>2026-05-04T12:27:06.858Z</time>
      </trkpt>
      <trkpt lat="50.498711" lon="8.669130">
        <ele>211.557036</ele>
        <time>2026-05-04T12:27:18.270Z</time>
      </trkpt>
      <trkpt lat="50.499261" lon="8.670262">
        <ele>215.739171</ele>
        <time>2026-05-04T12:27:48.069Z</time>
      </trkpt>
      <trkpt lat="50.499542" lon="8.670771">
        <ele>217.717910</ele>
        <time>2026-05-04T12:28:02.408Z</time>
      </trkpt>
      <trkpt lat="50.500242" lon="8.671912">
        <ele>222.076846</ele>
        <time>2026-05-04T12:28:34.583Z</time>
      </trkpt>
      <trkpt lat="50.500376" lon="8.672289">
        <ele>223.264087</ele>
        <time>2026-05-04T12:28:43.487Z</time>
      </trkpt>
      <trkpt lat="50.500761" lon="8.673936">
        <ele>227.666891</ele>
        <time>2026-05-04T12:29:18.987Z</time>
      </trkpt>
      <trkpt lat="50.501107" lon="8.674790">
        <ele>229.996410</ele>
        <time>2026-05-04T12:29:37.468Z</time>
      </trkpt>
      <trkpt lat="50.501232" lon="8.674925">
        <ele>230.544946</ele>
        <time>2026-05-04T12:29:41.671Z</time>
      </trkpt>
      <trkpt lat="50.501794" lon="8.676011">
        <ele>233.660834</ele>
        <time>2026-05-04T12:30:05.716Z</time>
      </trkpt>
      <trkpt lat="50.502348" lon="8.677057">
        <ele>236.604652</ele>
        <time>2026-05-04T12:30:29.417Z</time>
      </trkpt>
      <trkpt lat="50.502291" lon="8.677116">
        <ele>236.836699</ele>
        <time>2026-05-04T12:30:31.419Z</time>
      </trkpt>
      <trkpt lat="50.502956" lon="8.678377">
        <ele>240.523019</ele>
        <time>2026-05-04T12:31:04.729Z</time>
      </trkpt>
      <trkpt lat="50.503653" lon="8.679642">
        <ele>244.373612</ele>
        <time>2026-05-04T12:31:37.182Z</time>
      </trkpt>
      <trkpt lat="50.504091" lon="8.680256">
        <ele>244.465833</ele>
        <time>2026-05-04T12:31:49.341Z</time>
      </trkpt>
      <trkpt lat="50.504122" lon="8.680299">
        <ele>244.452289</ele>
        <time>2026-05-04T12:31:49.944Z</time>
      </trkpt>
      <trkpt lat="50.504602" lon="8.680845">
        <ele>244.258183</ele>
        <time>2026-05-04T12:31:57.732Z</time>
      </trkpt>
      <trkpt lat="50.505059" lon="8.681368">
        <ele>244.072991</ele>
        <time>2026-05-04T12:32:04.182Z</time>
      </trkpt>
      <trkpt lat="50.505581" lon="8.681938">
        <ele>241.809275</ele>
        <time>2026-05-04T12:32:10.555Z</time>
      </trkpt>
      <trkpt lat="50.505641" lon="8.681820">
        <ele>241.419106</ele>
        <time>2026-05-04T12:32:11.884Z</time>
      </trkpt>
      <trkpt lat="50.506171" lon="8.682264">
        <ele>238.980530</ele>
        <time>2026-05-04T12:32:17.770Z</time>
      </trkpt>
      <trkpt lat="50.506620" lon="8.682462">
        <ele>237.086934</ele>
        <time>2026-05-04T12:32:22.116Z</time>
      </trkpt>
      <trkpt lat="50.506862" lon="8.682511">
        <ele>235.973309</ele>
        <time>2026-05-04T12:32:24.362Z</time>
      </trkpt>
      <trkpt lat="50.507230" lon="8.682527">
        <ele>234.193876</ele>
        <time>2026-05-04T12:32:27.780Z</time>
      </trkpt>
      <trkpt lat="50.509357" lon="8.681881">
        <ele>224.412163</ele>
        <time>2026-05-04T12:32:48.527Z</time>
      </trkpt>
      <trkpt lat="50.509771" lon="8.681707">
        <ele>222.670966</ele>
        <time>2026-05-04T12:32:52.736Z</time>
      </trkpt>
      <trkpt lat="50.511241" lon="8.680866">
        <ele>217.170685</ele>
        <time>2026-05-04T12:33:08.378Z</time>
      </trkpt>
      <trkpt lat="50.511750" lon="8.680575">
        <ele>215.395652</ele>
        <time>2026-05-04T12:33:13.892Z</time>
      </trkpt>
      <trkpt lat="50.512032" lon="8.680443">
        <ele>214.504985</ele>
        <time>2026-05-04T12:33:16.919Z</time>
      </trkpt>
      <trkpt lat="50.513410" lon="8.679803">
        <ele>210.635161</ele>
        <time>2026-05-04T12:33:31.949Z</time>
      </trkpt>
      <trkpt lat="50.513966" lon="8.679576">
        <ele>209.223922</ele>
        <time>2026-05-04T12:33:37.986Z</time>
      </trkpt>
      <trkpt lat="50.514457" lon="8.679286">
        <ele>208.021727</ele>
        <time>2026-05-04T12:33:43.542Z</time>
      </trkpt>
      <trkpt lat="50.516268" lon="8.677490">
        <ele>203.423974</ele>
        <time>2026-05-04T12:34:06.986Z</time>
      </trkpt>
      <trkpt lat="50.518118" lon="8.676091">
        <ele>199.206954</ele>
        <time>2026-05-04T12:34:29.477Z</time>
      </trkpt>
      <trkpt lat="50.518799" lon="8.675594">
        <ele>197.557464</ele>
        <time>2026-05-04T12:34:37.576Z</time>
      </trkpt>
      <trkpt lat="50.519340" lon="8.675313">
        <ele>196.242338</ele>
        <time>2026-05-04T12:34:43.690Z</time>
      </trkpt>
      <trkpt lat="50.520002" lon="8.675074">
        <ele>194.674505</ele>
        <time>2026-05-04T12:34:50.917Z</time>
      </trkpt>
      <trkpt lat="50.520786" lon="8.674970">
        <ele>192.724880</ele>
        <time>2026-05-04T12:34:59.295Z</time>
      </trkpt>
      <trkpt lat="50.521835" lon="8.674937">
        <ele>190.087134</ele>
        <time>2026-05-04T12:35:10.414Z</time>
      </trkpt>
      <trkpt lat="50.522905" lon="8.674946">
        <ele>186.787330</ele>
        <time>2026-05-04T12:35:21.422Z</time>
      </trkpt>
      <trkpt lat="50.522963" lon="8.675071">
        <ele>186.478105</ele>
        <time>2026-05-04T12:35:22.420Z</time>
      </trkpt>
      <trkpt lat="50.523505" lon="8.675053">
        <ele>184.774220</ele>
        <time>2026-05-04T12:35:27.834Z</time>
      </trkpt>
      <trkpt lat="50.524007" lon="8.674959">
        <ele>183.313929</ele>
        <time>2026-05-04T12:35:32.846Z</time>
      </trkpt>
      <trkpt lat="50.524013" lon="8.675003">
        <ele>183.235624</ele>
        <time>2026-05-04T12:35:33.132Z</time>
      </trkpt>
      <trkpt lat="50.524667" lon="8.674888">
        <ele>181.434458</ele>
        <time>2026-05-04T12:35:39.882Z</time>
      </trkpt>
      <trkpt lat="50.525521" lon="8.674725">
        <ele>179.170200</ele>
        <time>2026-05-04T12:35:49.059Z</time>
      </trkpt>
      <trkpt lat="50.526479" lon="8.674351">
        <ele>177.836571</ele>
        <time>2026-05-04T12:36:00.438Z</time>
      </trkpt>
      <trkpt lat="50.526755" lon="8.674209">
        <ele>177.444226</ele>
        <time>2026-05-04T12:36:03.878Z</time>
      </trkpt>
      <trkpt lat="50.526970" lon="8.674074">
        <ele>177.131450</ele>
        <time>2026-05-04T12:36:06.679Z</time>
      </trkpt>
      <trkpt lat="50.527184" lon="8.673955">
        <ele>176.827921</ele>
        <time>2026-05-04T12:36:09.527Z</time>
      </trkpt>
      <trkpt lat="50.527915" lon="8.673550">
        <ele>176.777393</ele>
        <time>2026-05-04T12:36:20.185Z</time>
      </trkpt>
      <trkpt lat="50.527952" lon="8.673506">
        <ele>176.774369</ele>
        <time>2026-05-04T12:36:20.850Z</time>
      </trkpt>
      <trkpt lat="50.528274" lon="8.675593">
        <ele>176.980216</ele>
        <time>2026-05-04T12:36:42.542Z</time>
      </trkpt>
      <trkpt lat="50.528517" lon="8.676220">
        <ele>177.302333</ele>
        <time>2026-05-04T12:36:50.740Z</time>
      </trkpt>
      <trkpt lat="50.528631" lon="8.676619">
        <ele>177.494219</ele>
        <time>2026-05-04T12:36:55.809Z</time>
      </trkpt>
      <trkpt lat="50.528671" lon="8.676696">
        <ele>177.537838</ele>
        <time>2026-05-04T12:36:56.978Z</time>
      </trkpt>
      <trkpt lat="50.528616" lon="8.676902">
        <ele>177.635846</ele>
        <time>2026-05-04T12:36:59.606Z</time>
      </trkpt>
      <trkpt lat="50.528613" lon="8.677239">
        <ele>177.783684</ele>
        <time>2026-05-04T12:37:03.574Z</time>
      </trkpt>
      <trkpt lat="50.528802" lon="8.678007">
        <ele>178.204116</ele>
        <time>2026-05-04T12:37:13.473Z</time>
      </trkpt>
      <trkpt lat="50.529102" lon="8.680005">
        <ele>179.380820</ele>
        <time>2026-05-04T12:37:38.165Z</time>
      </trkpt>
      <trkpt lat="50.529274" lon="8.681121">
        <ele>179.588595</ele>
        <time>2026-05-04T12:37:50.078Z</time>
      </trkpt>
      <trkpt lat="50.529462" lon="8.682846">
        <ele>179.620742</ele>
        <time>2026-05-04T12:38:05.603Z</time>
      </trkpt>
      <trkpt lat="50.529569" lon="8.683836">
        <ele>179.672389</ele>
        <time>2026-05-04T12:38:14.882Z</time>
      </trkpt>
      <trkpt lat="50.529517" lon="8.683881">
        <ele>179.678311</ele>
        <time>2026-05-04T12:38:15.862Z</time>
      </trkpt>
      <trkpt lat="50.529501" lon="8.683970">
        <ele>179.684178</ele>
        <time>2026-05-04T12:38:16.837Z</time>
      </trkpt>
      <trkpt lat="50.529533" lon="8.684055">
        <ele>179.690444</ele>
        <time>2026-05-04T12:38:17.842Z</time>
      </trkpt>
      <trkpt lat="50.529595" lon="8.684073">
        <ele>179.696735</ele>
        <time>2026-05-04T12:38:18.870Z</time>
      </trkpt>
      <trkpt lat="50.529606" lon="8.684187">
        <ele>179.704050</ele>
        <time>2026-05-04T12:38:20.042Z</time>
      </trkpt>
      <trkpt lat="50.529556" lon="8.684199">
        <ele>179.709097</ele>
        <time>2026-05-04T12:38:20.883Z</time>
      </trkpt>
      <trkpt lat="50.529686" lon="8.685470">
        <ele>179.790756</ele>
        <time>2026-05-04T12:38:33.820Z</time>
      </trkpt>
      <trkpt lat="50.529782" lon="8.686478">
        <ele>179.836749</ele>
        <time>2026-05-04T12:38:43.304Z</time>
      </trkpt>
      <trkpt lat="50.529956" lon="8.687282">
        <ele>179.870626</ele>
        <time>2026-05-04T12:38:50.637Z</time>
      </trkpt>
      <trkpt lat="50.530019" lon="8.687508">
        <ele>179.880469</ele>
        <time>2026-05-04T12:38:52.775Z</time>
      </trkpt>
      <trkpt lat="50.530109" lon="8.687719">
        <ele>179.890605</ele>
        <time>2026-05-04T12:38:55.108Z</time>
      </trkpt>
      <trkpt lat="50.530642" lon="8.688680">
        <ele>180.265973</ele>
        <time>2026-05-04T12:39:09.093Z</time>
      </trkpt>
      <trkpt lat="50.530885" lon="8.689225">
        <ele>180.659508</ele>
        <time>2026-05-04T12:39:17.683Z</time>
      </trkpt>
      <trkpt lat="50.531135" lon="8.690087">
        <ele>181.219617</ele>
        <time>2026-05-04T12:39:29.938Z</time>
      </trkpt>
      <trkpt lat="50.531288" lon="8.690996">
        <ele>181.510128</ele>
        <time>2026-05-04T12:39:40.795Z</time>
      </trkpt>
      <trkpt lat="50.531540" lon="8.692759">
        <ele>181.044308</ele>
        <time>2026-05-04T12:39:55.904Z</time>
      </trkpt>
      <trkpt lat="50.531786" lon="8.694521">
        <ele>180.787225</ele>
        <time>2026-05-04T12:40:09.903Z</time>
      </trkpt>
      <trkpt lat="50.532067" lon="8.696537">
        <ele>181.004088</ele>
        <time>2026-05-04T12:40:30.747Z</time>
      </trkpt>
      <trkpt lat="50.532353" lon="8.699449">
        <ele>184.201791</ele>
        <time>2026-05-04T12:41:12.371Z</time>
      </trkpt>
      <trkpt lat="50.532425" lon="8.700215">
        <ele>185.332711</ele>
        <time>2026-05-04T12:41:24.734Z</time>
      </trkpt>
      <trkpt lat="50.532550" lon="8.701531">
        <ele>187.276086</ele>
        <time>2026-05-04T12:41:45.666Z</time>
      </trkpt>
      <trkpt lat="50.532607" lon="8.701914">
        <ele>187.840346</ele>
        <time>2026-05-04T12:41:51.770Z</time>
      </trkpt>
      <trkpt lat="50.532630" lon="8.701958">
        <ele>187.918423</ele>
        <time>2026-05-04T12:41:52.612Z</time>
      </trkpt>
      <trkpt lat="50.532678" lon="8.701948">
        <ele>188.022824</ele>
        <time>2026-05-04T12:41:56.866Z</time>
      </trkpt>
      <trkpt lat="50.532711" lon="8.702007">
        <ele>188.130535</ele>
        <time>2026-05-04T12:41:58.059Z</time>
      </trkpt>
      <trkpt lat="50.532796" lon="8.702582">
        <ele>188.939637</ele>
        <time>2026-05-04T12:42:06.715Z</time>
      </trkpt>
      <trkpt lat="50.532846" lon="8.703193">
        <ele>189.783957</ele>
        <time>2026-05-04T12:42:15.540Z</time>
      </trkpt>
      <trkpt lat="50.532908" lon="8.703194">
        <ele>189.917648</ele>
        <time>2026-05-04T12:42:16.919Z</time>
      </trkpt>
      <trkpt lat="50.532916" lon="8.703322">
        <ele>190.093924</ele>
        <time>2026-05-04T12:42:18.755Z</time>
      </trkpt>
      <trkpt lat="50.532856" lon="8.703363">
        <ele>190.234973</ele>
        <time>2026-05-04T12:42:20.230Z</time>
      </trkpt>
      <trkpt lat="50.532819" lon="8.703502">
        <ele>190.441510</ele>
        <time>2026-05-04T12:42:22.416Z</time>
      </trkpt>
      <trkpt lat="50.532845" lon="8.703601">
        <ele>190.588320</ele>
        <time>2026-05-04T12:42:24.031Z</time>
      </trkpt>
      <trkpt lat="50.532939" lon="8.703658">
        <ele>190.805537</ele>
        <time>2026-05-04T12:42:26.393Z</time>
      </trkpt>
      <trkpt lat="50.533039" lon="8.705195">
        <ele>192.989113</ele>
        <time>2026-05-04T12:42:50.258Z</time>
      </trkpt>
      <trkpt lat="50.533104" lon="8.706486">
        <ele>194.850178</ele>
        <time>2026-05-04T12:43:11.040Z</time>
      </trkpt>
      <trkpt lat="50.533101" lon="8.708852">
        <ele>196.854439</ele>
        <time>2026-05-04T12:43:42.653Z</time>
      </trkpt>
      <trkpt lat="50.533114" lon="8.709048">
        <ele>196.986833</ele>
        <time>2026-05-04T12:43:44.688Z</time>
      </trkpt>
      <trkpt lat="50.533178" lon="8.709306">
        <ele>197.172899</ele>
        <time>2026-05-04T12:43:47.514Z</time>
      </trkpt>
      <trkpt lat="50.533335" lon="8.709898">
        <ele>197.570685</ele>
        <time>2026-05-04T12:43:53.608Z</time>
      </trkpt>
      <trkpt lat="50.533604" lon="8.711121">
        <ele>198.049431</ele>
        <time>2026-05-04T12:44:05.374Z</time>
      </trkpt>
      <trkpt lat="50.533718" lon="8.711932">
        <ele>198.356692</ele>
        <time>2026-05-04T12:44:14.811Z</time>
      </trkpt>
      <trkpt lat="50.533890" lon="8.713424">
        <ele>199.982971</ele>
        <time>2026-05-04T12:44:35.206Z</time>
      </trkpt>
      <trkpt lat="50.533926" lon="8.713729">
        <ele>200.456469</ele>
        <time>2026-05-04T12:44:39.974Z</time>
      </trkpt>
      <trkpt lat="50.534012" lon="8.714328">
        <ele>201.393789</ele>
        <time>2026-05-04T12:44:50.087Z</time>
      </trkpt>
      <trkpt lat="50.534052" lon="8.714602">
        <ele>201.822899</ele>
        <time>2026-05-04T12:44:54.899Z</time>
      </trkpt>
      <trkpt lat="50.534104" lon="8.714922">
        <ele>202.327040</ele>
        <time>2026-05-04T12:45:00.679Z</time>
      </trkpt>
      <trkpt lat="50.534175" lon="8.715411">
        <ele>203.115777</ele>
        <time>2026-05-04T12:45:09.347Z</time>
      </trkpt>
      <trkpt lat="50.534273" lon="8.715898">
        <ele>203.987178</ele>
        <time>2026-05-04T12:45:17.998Z</time>
      </trkpt>
      <trkpt lat="50.534429" lon="8.716479">
        <ele>205.063090</ele>
        <time>2026-05-04T12:45:28.601Z</time>
      </trkpt>
      <trkpt lat="50.534599" lon="8.717145">
        <ele>206.287385</ele>
        <time>2026-05-04T12:45:40.636Z</time>
      </trkpt>
      <trkpt lat="50.534610" lon="8.717184">
        <ele>206.360169</ele>
        <time>2026-05-04T12:45:41.325Z</time>
      </trkpt>
      <trkpt lat="50.534834" lon="8.718084">
        <ele>207.825493</ele>
        <time>2026-05-04T12:45:56.392Z</time>
      </trkpt>
      <trkpt lat="50.534986" lon="8.718825">
        <ele>208.300852</ele>
        <time>2026-05-04T12:46:06.740Z</time>
      </trkpt>
      <trkpt lat="50.535100" lon="8.719387">
        <ele>208.661004</ele>
        <time>2026-05-04T12:46:13.542Z</time>
      </trkpt>
      <trkpt lat="50.535269" lon="8.720014">
        <ele>209.076785</ele>
        <time>2026-05-04T12:46:20.632Z</time>
      </trkpt>
      <trkpt lat="50.535384" lon="8.720297">
        <ele>209.281848</ele>
        <time>2026-05-04T12:46:23.847Z</time>
      </trkpt>
      <trkpt lat="50.535736" lon="8.720910">
        <ele>209.838307</ele>
        <time>2026-05-04T12:46:31.417Z</time>
      </trkpt>
      <trkpt lat="50.536416" lon="8.722047">
        <ele>210.939537</ele>
        <time>2026-05-04T12:46:50.271Z</time>
      </trkpt>
      <trkpt lat="50.536826" lon="8.722734">
        <ele>211.687804</ele>
        <time>2026-05-04T12:47:04.425Z</time>
      </trkpt>
      <trkpt lat="50.536999" lon="8.723036">
        <ele>212.126876</ele>
        <time>2026-05-04T12:47:10.480Z</time>
      </trkpt>
      <trkpt lat="50.537160" lon="8.723391">
        <ele>212.597858</ele>
        <time>2026-05-04T12:47:16.844Z</time>
      </trkpt>
      <trkpt lat="50.537275" lon="8.723733">
        <ele>213.015709</ele>
        <time>2026-05-04T12:47:22.467Z</time>
      </trkpt>
      <trkpt lat="50.537433" lon="8.724365">
        <ele>213.749143</ele>
        <time>2026-05-04T12:47:31.913Z</time>
      </trkpt>
      <trkpt lat="50.537507" lon="8.724695">
        <ele>214.127058</ele>
        <time>2026-05-04T12:47:36.477Z</time>
      </trkpt>
      <trkpt lat="50.537795" lon="8.725989">
        <ele>214.473723</ele>
        <time>2026-05-04T12:47:52.604Z</time>
      </trkpt>
      <trkpt lat="50.537942" lon="8.726879">
        <ele>214.447254</ele>
        <time>2026-05-04T12:48:01.191Z</time>
      </trkpt>
      <trkpt lat="50.538050" lon="8.727691">
        <ele>214.423375</ele>
        <time>2026-05-04T12:48:07.669Z</time>
      </trkpt>
      <trkpt lat="50.538149" lon="8.728733">
        <ele>213.491182</ele>
        <time>2026-05-04T12:48:15.128Z</time>
      </trkpt>
      <trkpt lat="50.538215" lon="8.729295">
        <ele>212.956993</ele>
        <time>2026-05-04T12:48:19.080Z</time>
      </trkpt>
      <trkpt lat="50.538389" lon="8.730528">
        <ele>211.776528</ele>
        <time>2026-05-04T12:48:28.333Z</time>
      </trkpt>
      <trkpt lat="50.538595" lon="8.731570">
        <ele>211.698189</ele>
        <time>2026-05-04T12:48:37.856Z</time>
      </trkpt>
      <trkpt lat="50.538533" lon="8.731607">
        <ele>211.690699</ele>
        <time>2026-05-04T12:48:39.255Z</time>
      </trkpt>
      <trkpt lat="50.538490" lon="8.731747">
        <ele>211.679536</ele>
        <time>2026-05-04T12:48:41.207Z</time>
      </trkpt>
      <trkpt lat="50.538439" lon="8.732116">
        <ele>211.652427</ele>
        <time>2026-05-04T12:48:46.367Z</time>
      </trkpt>
      <trkpt lat="50.538496" lon="8.732196">
        <ele>211.643800</ele>
        <time>2026-05-04T12:48:47.920Z</time>
      </trkpt>
      <trkpt lat="50.538456" lon="8.732336">
        <ele>211.632781</ele>
        <time>2026-05-04T12:48:49.589Z</time>
      </trkpt>
      <trkpt lat="50.538454" lon="8.732410">
        <ele>211.627463</ele>
        <time>2026-05-04T12:48:50.296Z</time>
      </trkpt>
      <trkpt lat="50.538451" lon="8.732578">
        <ele>211.615398</ele>
        <time>2026-05-04T12:48:52.127Z</time>
      </trkpt>
      <trkpt lat="50.538484" lon="8.733244">
        <ele>211.614322</ele>
        <time>2026-05-04T12:48:59.334Z</time>
      </trkpt>
      <trkpt lat="50.538534" lon="8.733242">
        <ele>211.653339</ele>
        <time>2026-05-04T12:49:04.895Z</time>
      </trkpt>
      <trkpt lat="50.538603" lon="8.734677">
        <ele>212.366831</ele>
        <time>2026-05-04T12:49:18.436Z</time>
      </trkpt>
      <trkpt lat="50.538639" lon="8.735510">
        <ele>212.780777</ele>
        <time>2026-05-04T12:49:28.603Z</time>
      </trkpt>
      <trkpt lat="50.538723" lon="8.736168">
        <ele>213.401294</ele>
        <time>2026-05-04T12:49:38.296Z</time>
      </trkpt>
      <trkpt lat="50.538867" lon="8.737027">
        <ele>214.766539</ele>
        <time>2026-05-04T12:49:52.465Z</time>
      </trkpt>
      <trkpt lat="50.538916" lon="8.737531">
        <ele>215.550086</ele>
        <time>2026-05-04T12:50:01.086Z</time>
      </trkpt>
      <trkpt lat="50.538913" lon="8.738360">
        <ele>216.824097</ele>
        <time>2026-05-04T12:50:14.347Z</time>
      </trkpt>
      <trkpt lat="50.538864" lon="8.738867">
        <ele>217.600106</ele>
        <time>2026-05-04T12:50:22.238Z</time>
      </trkpt>
      <trkpt lat="50.538667" lon="8.739920">
        <ele>219.215801</ele>
        <time>2026-05-04T12:50:39.157Z</time>
      </trkpt>
      <trkpt lat="50.538483" lon="8.741077">
        <ele>220.971333</ele>
        <time>2026-05-04T12:50:57.516Z</time>
      </trkpt>
      <trkpt lat="50.538452" lon="8.741073">
        <ele>221.043369</ele>
        <time>2026-05-04T12:50:58.257Z</time>
      </trkpt>
      <trkpt lat="50.538253" lon="8.742197">
        <ele>222.005872</ele>
        <time>2026-05-04T12:51:15.505Z</time>
      </trkpt>
      <trkpt lat="50.538166" lon="8.742599">
        <ele>222.259262</ele>
        <time>2026-05-04T12:51:21.123Z</time>
      </trkpt>
      <trkpt lat="50.538081" lon="8.742936">
        <ele>222.475599</ele>
        <time>2026-05-04T12:51:25.484Z</time>
      </trkpt>
      <trkpt lat="50.537904" lon="8.743638">
        <ele>222.926228</ele>
        <time>2026-05-04T12:51:33.439Z</time>
      </trkpt>
      <trkpt lat="50.537732" lon="8.744110">
        <ele>223.143188</ele>
        <time>2026-05-04T12:51:37.925Z</time>
      </trkpt>
      <trkpt lat="50.537466" lon="8.744653">
        <ele>222.932327</ele>
        <time>2026-05-04T12:51:43.329Z</time>
      </trkpt>
      <trkpt lat="50.537240" lon="8.745017">
        <ele>222.775818</ele>
        <time>2026-05-04T12:51:47.424Z</time>
      </trkpt>
      <trkpt lat="50.537028" lon="8.745285">
        <ele>222.644213</ele>
        <time>2026-05-04T12:51:50.901Z</time>
      </trkpt>
      <trkpt lat="50.536746" lon="8.745576">
        <ele>222.481014</ele>
        <time>2026-05-04T12:51:55.305Z</time>
      </trkpt>
      <trkpt lat="50.536293" lon="8.745949">
        <ele>222.366244</ele>
        <time>2026-05-04T12:52:02.328Z</time>
      </trkpt>
      <trkpt lat="50.535834" lon="8.746275">
        <ele>222.548943</ele>
        <time>2026-05-04T12:52:10.529Z</time>
      </trkpt>
      <trkpt lat="50.535644" lon="8.746402">
        <ele>222.623835</ele>
        <time>2026-05-04T12:52:14.120Z</time>
      </trkpt>
      <trkpt lat="50.534930" lon="8.746836">
        <ele>222.901523</ele>
        <time>2026-05-04T12:52:26.960Z</time>
      </trkpt>
      <trkpt lat="50.534102" lon="8.747275">
        <ele>223.804135</ele>
        <time>2026-05-04T12:52:42.124Z</time>
      </trkpt>
      <trkpt lat="50.533823" lon="8.747395">
        <ele>224.148565</ele>
        <time>2026-05-04T12:52:47.765Z</time>
      </trkpt>
      <trkpt lat="50.533718" lon="8.747439">
        <ele>224.277960</ele>
        <time>2026-05-04T12:52:49.989Z</time>
      </trkpt>
      <trkpt lat="50.532924" lon="8.747642">
        <ele>225.266048</ele>
        <time>2026-05-04T12:53:07.619Z</time>
      </trkpt>
      <trkpt lat="50.532294" lon="8.747789">
        <ele>226.197723</ele>
        <time>2026-05-04T12:53:21.566Z</time>
      </trkpt>
      <trkpt lat="50.531952" lon="8.747871">
        <ele>226.703795</ele>
        <time>2026-05-04T12:53:28.753Z</time>
      </trkpt>
      <trkpt lat="50.531825" lon="8.747900">
        <ele>226.891523</ele>
        <time>2026-05-04T12:53:31.346Z</time>
      </trkpt>
      <trkpt lat="50.531712" lon="8.747927">
        <ele>227.058721</ele>
        <time>2026-05-04T12:53:33.596Z</time>
      </trkpt>
      <trkpt lat="50.531271" lon="8.748029">
        <ele>227.710772</ele>
        <time>2026-05-04T12:53:42.070Z</time>
      </trkpt>
      <trkpt lat="50.530994" lon="8.748094">
        <ele>228.171733</ele>
        <time>2026-05-04T12:53:47.415Z</time>
      </trkpt>
      <trkpt lat="50.530843" lon="8.748129">
        <ele>228.424698</ele>
        <time>2026-05-04T12:53:50.338Z</time>
      </trkpt>
      <trkpt lat="50.530803" lon="8.748138">
        <ele>228.491668</ele>
        <time>2026-05-04T12:53:51.118Z</time>
      </trkpt>
      <trkpt lat="50.530378" lon="8.748228">
        <ele>229.202407</ele>
        <time>2026-05-04T12:53:59.698Z</time>
      </trkpt>
      <trkpt lat="50.529661" lon="8.748382">
        <ele>230.401771</ele>
        <time>2026-05-04T12:54:16.842Z</time>
      </trkpt>
      <trkpt lat="50.529641" lon="8.748386">
        <ele>230.435185</ele>
        <time>2026-05-04T12:54:17.314Z</time>
      </trkpt>
      <trkpt lat="50.529044" lon="8.748508">
        <ele>230.789956</ele>
        <time>2026-05-04T12:54:31.385Z</time>
      </trkpt>
      <trkpt lat="50.529006" lon="8.748516">
        <ele>230.796514</ele>
        <time>2026-05-04T12:54:32.200Z</time>
      </trkpt>
      <trkpt lat="50.528798" lon="8.748559">
        <ele>230.832400</ele>
        <time>2026-05-04T12:54:36.302Z</time>
      </trkpt>
      <trkpt lat="50.528676" lon="8.748620">
        <ele>230.854297</ele>
        <time>2026-05-04T12:54:38.596Z</time>
      </trkpt>
      <trkpt lat="50.528545" lon="8.748818">
        <ele>230.885373</ele>
        <time>2026-05-04T12:54:41.543Z</time>
      </trkpt>
      <trkpt lat="50.528466" lon="8.749103">
        <ele>230.919182</ele>
        <time>2026-05-04T12:54:44.372Z</time>
      </trkpt>
      <trkpt lat="50.528388" lon="8.749585">
        <ele>230.973266</ele>
        <time>2026-05-04T12:54:48.331Z</time>
      </trkpt>
      <trkpt lat="50.528187" lon="8.751068">
        <ele>229.565631</ele>
        <time>2026-05-04T12:54:58.599Z</time>
      </trkpt>
      <trkpt lat="50.528065" lon="8.752222">
        <ele>227.946182</ele>
        <time>2026-05-04T12:55:06.349Z</time>
      </trkpt>
      <trkpt lat="50.528077" lon="8.752368">
        <ele>227.742388</ele>
        <time>2026-05-04T12:55:07.364Z</time>
      </trkpt>
      <trkpt lat="50.528136" lon="8.752493">
        <ele>227.526865</ele>
        <time>2026-05-04T12:55:08.452Z</time>
      </trkpt>
      <trkpt lat="50.528301" lon="8.752705">
        <ele>227.091711</ele>
        <time>2026-05-04T12:55:10.843Z</time>
      </trkpt>
      <trkpt lat="50.528507" lon="8.752932">
        <ele>226.903043</ele>
        <time>2026-05-04T12:55:13.778Z</time>
      </trkpt>
      <trkpt lat="50.528530" lon="8.752960">
        <ele>226.881227</ele>
        <time>2026-05-04T12:55:14.122Z</time>
      </trkpt>
      <trkpt lat="50.529890" lon="8.754550">
        <ele>225.794576</ele>
        <time>2026-05-04T12:55:36.659Z</time>
      </trkpt>
      <trkpt lat="50.530227" lon="8.754885">
        <ele>225.869528</ele>
        <time>2026-05-04T12:55:42.504Z</time>
      </trkpt>
      <trkpt lat="50.530447" lon="8.755030">
        <ele>225.914376</ele>
        <time>2026-05-04T12:55:46.076Z</time>
      </trkpt>
      <trkpt lat="50.530550" lon="8.755143">
        <ele>225.937986</ele>
        <time>2026-05-04T12:55:47.998Z</time>
      </trkpt>
      <trkpt lat="50.530565" lon="8.755260">
        <ele>225.952251</ele>
        <time>2026-05-04T12:55:49.126Z</time>
      </trkpt>
      <trkpt lat="50.530528" lon="8.755567">
        <ele>225.989596</ele>
        <time>2026-05-04T12:55:52.100Z</time>
      </trkpt>
      <trkpt lat="50.530420" lon="8.755943">
        <ele>226.038909</ele>
        <time>2026-05-04T12:55:56.225Z</time>
      </trkpt>
      <trkpt lat="50.530397" lon="8.756167">
        <ele>226.066027</ele>
        <time>2026-05-04T12:55:58.754Z</time>
      </trkpt>
      <trkpt lat="50.530704" lon="8.756280">
        <ele>226.315896</ele>
        <time>2026-05-04T12:56:04.852Z</time>
      </trkpt>
      <trkpt lat="50.530921" lon="8.756359">
        <ele>226.628201</ele>
        <time>2026-05-04T12:56:09.346Z</time>
      </trkpt>
      <trkpt lat="50.531442" lon="8.756760">
        <ele>227.441458</ele>
        <time>2026-05-04T12:56:20.909Z</time>
      </trkpt>
      <trkpt lat="50.531562" lon="8.756513">
        <ele>227.718539</ele>
        <time>2026-05-04T12:56:24.951Z</time>
      </trkpt>
      <trkpt lat="50.532134" lon="8.757117">
        <ele>228.696304</ele>
        <time>2026-05-04T12:56:39.864Z</time>
      </trkpt>
      <trkpt lat="50.532406" lon="8.757409">
        <ele>229.239845</ele>
        <time>2026-05-04T12:56:47.365Z</time>
      </trkpt>
      <trkpt lat="50.533217" lon="8.758281">
        <ele>230.861281</ele>
        <time>2026-05-04T12:57:09.404Z</time>
      </trkpt>
      <trkpt lat="50.534008" lon="8.759133">
        <ele>232.004772</ele>
        <time>2026-05-04T12:57:27.622Z</time>
      </trkpt>
      <trkpt lat="50.535342" lon="8.760538">
        <ele>233.665794</ele>
        <time>2026-05-04T12:57:55.382Z</time>
      </trkpt>
      <trkpt lat="50.535471" lon="8.760687">
        <ele>233.975462</ele>
        <time>2026-05-04T12:57:58.739Z</time>
      </trkpt>
      <trkpt lat="50.535410" lon="8.760918">
        <ele>234.283118</ele>
        <time>2026-05-04T12:58:02.227Z</time>
      </trkpt>
      <trkpt lat="50.535403" lon="8.760924">
        <ele>234.298544</ele>
        <time>2026-05-04T12:58:02.423Z</time>
      </trkpt>
      <trkpt lat="50.535368" lon="8.761033">
        <ele>234.448741</ele>
        <time>2026-05-04T12:58:04.180Z</time>
      </trkpt>
      <trkpt lat="50.535422" lon="8.761339">
        <ele>234.839334</ele>
        <time>2026-05-04T12:58:08.880Z</time>
      </trkpt>
      <trkpt lat="50.535409" lon="8.761471">
        <ele>235.003621</ele>
        <time>2026-05-04T12:58:10.927Z</time>
      </trkpt>
      <trkpt lat="50.535246" lon="8.761855">
        <ele>235.571550</ele>
        <time>2026-05-04T12:58:18.257Z</time>
      </trkpt>
      <trkpt lat="50.534394" lon="8.763866">
        <ele>238.414097</ele>
        <time>2026-05-04T12:58:57.482Z</time>
      </trkpt>
      <trkpt lat="50.533570" lon="8.766205">
        <ele>239.889111</ele>
        <time>2026-05-04T12:59:27.014Z</time>
      </trkpt>
      <trkpt lat="50.533294" lon="8.767190">
        <ele>239.972682</ele>
        <time>2026-05-04T12:59:35.851Z</time>
      </trkpt>
      <trkpt lat="50.533012" lon="8.768445">
        <ele>240.493639</ele>
        <time>2026-05-04T12:59:47.458Z</time>
      </trkpt>
      <trkpt lat="50.532950" lon="8.768914">
        <ele>240.717539</ele>
        <time>2026-05-04T12:59:53.293Z</time>
      </trkpt>
      <trkpt lat="50.532755" lon="8.769729">
        <ele>241.124563</ele>
        <time>2026-05-04T13:00:05.476Z</time>
      </trkpt>
      <trkpt lat="50.532695" lon="8.769956">
        <ele>241.239471</ele>
        <time>2026-05-04T13:00:08.884Z</time>
      </trkpt>
      <trkpt lat="50.532515" lon="8.770836">
        <ele>241.165959</ele>
        <time>2026-05-04T13:00:21.546Z</time>
      </trkpt>
      <trkpt lat="50.532106" lon="8.773916">
        <ele>238.979660</ele>
        <time>2026-05-04T13:00:45.534Z</time>
      </trkpt>
      <trkpt lat="50.531920" lon="8.775140">
        <ele>236.902334</ele>
        <time>2026-05-04T13:00:53.572Z</time>
      </trkpt>
      <trkpt lat="50.531770" lon="8.775768">
        <ele>235.685340</ele>
        <time>2026-05-04T13:00:57.772Z</time>
      </trkpt>
      <trkpt lat="50.531603" lon="8.776522">
        <ele>233.877040</ele>
        <time>2026-05-04T13:01:02.796Z</time>
      </trkpt>
      <trkpt lat="50.531493" lon="8.776896">
        <ele>232.943752</ele>
        <time>2026-05-04T13:01:05.393Z</time>
      </trkpt>
      <trkpt lat="50.531144" lon="8.778002">
        <ele>230.147284</ele>
        <time>2026-05-04T13:01:13.264Z</time>
      </trkpt>
      <trkpt lat="50.530851" lon="8.778789">
        <ele>228.398748</ele>
        <time>2026-05-04T13:01:19.054Z</time>
      </trkpt>
      <trkpt lat="50.530464" lon="8.779673">
        <ele>226.449628</ele>
        <time>2026-05-04T13:01:25.867Z</time>
      </trkpt>
      <trkpt lat="50.529746" lon="8.781102">
        <ele>224.632775</ele>
        <time>2026-05-04T13:01:38.570Z</time>
      </trkpt>
      <trkpt lat="50.528632" lon="8.783190">
        <ele>225.085652</ele>
        <time>2026-05-04T13:02:12.316Z</time>
      </trkpt>
      <trkpt lat="50.527574" lon="8.785166">
        <ele>225.016345</ele>
        <time>2026-05-04T13:02:39.981Z</time>
      </trkpt>
      <trkpt lat="50.527244" lon="8.785754">
        <ele>223.602614</ele>
        <time>2026-05-04T13:02:45.159Z</time>
      </trkpt>
      <trkpt lat="50.527108" lon="8.786020">
        <ele>222.987349</ele>
        <time>2026-05-04T13:02:47.307Z</time>
      </trkpt>
      <trkpt lat="50.526675" lon="8.787055">
        <ele>220.754116</ele>
        <time>2026-05-04T13:02:54.889Z</time>
      </trkpt>
      <trkpt lat="50.526153" lon="8.788392">
        <ele>217.263165</ele>
        <time>2026-05-04T13:03:04.797Z</time>
      </trkpt>
      <trkpt lat="50.525472" lon="8.790442">
        <ele>212.286601</ele>
        <time>2026-05-04T13:03:19.666Z</time>
      </trkpt>
      <trkpt lat="50.525102" lon="8.791270">
        <ele>210.220141</ele>
        <time>2026-05-04T13:03:26.117Z</time>
      </trkpt>
      <trkpt lat="50.524626" lon="8.792077">
        <ele>208.194826</ele>
        <time>2026-05-04T13:03:33.218Z</time>
      </trkpt>
      <trkpt lat="50.524085" lon="8.792727">
        <ele>206.818383</ele>
        <time>2026-05-04T13:03:40.525Z</time>
      </trkpt>
      <trkpt lat="50.523316" lon="8.793555">
        <ele>204.934515</ele>
        <time>2026-05-04T13:03:51.189Z</time>
      </trkpt>
      <trkpt lat="50.523202" lon="8.793645">
        <ele>204.725605</ele>
        <time>2026-05-04T13:03:52.743Z</time>
      </trkpt>
      <trkpt lat="50.523037" lon="8.793774">
        <ele>204.423824</ele>
        <time>2026-05-04T13:03:55.026Z</time>
      </trkpt>
      <trkpt lat="50.522649" lon="8.794186">
        <ele>203.657097</ele>
        <time>2026-05-04T13:04:00.728Z</time>
      </trkpt>
      <trkpt lat="50.521962" lon="8.795169">
        <ele>202.135996</ele>
        <time>2026-05-04T13:04:11.181Z</time>
      </trkpt>
      <trkpt lat="50.521787" lon="8.795456">
        <ele>201.545862</ele>
        <time>2026-05-04T13:04:13.834Z</time>
      </trkpt>
      <trkpt lat="50.521373" lon="8.796581">
        <ele>199.304203</ele>
        <time>2026-05-04T13:04:22.338Z</time>
      </trkpt>
      <trkpt lat="50.521308" lon="8.796909">
        <ele>198.711711</ele>
        <time>2026-05-04T13:04:24.556Z</time>
      </trkpt>
      <trkpt lat="50.521056" lon="8.798023">
        <ele>196.791705</ele>
        <time>2026-05-04T13:04:32.325Z</time>
      </trkpt>
      <trkpt lat="50.520854" lon="8.798787">
        <ele>195.752020</ele>
        <time>2026-05-04T13:04:37.999Z</time>
      </trkpt>
      <trkpt lat="50.520336" lon="8.800351">
        <ele>193.537676</ele>
        <time>2026-05-04T13:04:50.731Z</time>
      </trkpt>
      <trkpt lat="50.520195" lon="8.801289">
        <ele>192.416360</ele>
        <time>2026-05-04T13:04:57.729Z</time>
      </trkpt>
      <trkpt lat="50.520240" lon="8.801339">
        <ele>192.315547</ele>
        <time>2026-05-04T13:04:58.371Z</time>
      </trkpt>
      <trkpt lat="50.520217" lon="8.801558">
        <ele>192.057318</ele>
        <time>2026-05-04T13:04:59.957Z</time>
      </trkpt>
      <trkpt lat="50.520190" lon="8.801962">
        <ele>191.584730</ele>
        <time>2026-05-04T13:05:02.834Z</time>
      </trkpt>
      <trkpt lat="50.520188" lon="8.802570">
        <ele>190.877396</ele>
        <time>2026-05-04T13:05:07.171Z</time>
      </trkpt>
      <trkpt lat="50.520225" lon="8.803632">
        <ele>189.229939</ele>
        <time>2026-05-04T13:05:14.467Z</time>
      </trkpt>
      <trkpt lat="50.520238" lon="8.803876">
        <ele>188.758387</ele>
        <time>2026-05-04T13:05:16.099Z</time>
      </trkpt>
      <trkpt lat="50.520249" lon="8.804064">
        <ele>188.394800</ele>
        <time>2026-05-04T13:05:17.342Z</time>
      </trkpt>
      <trkpt lat="50.520275" lon="8.804556">
        <ele>187.444020</ele>
        <time>2026-05-04T13:05:20.587Z</time>
      </trkpt>
      <trkpt lat="50.520312" lon="8.805158">
        <ele>186.279263</ele>
        <time>2026-05-04T13:05:24.500Z</time>
      </trkpt>
      <trkpt lat="50.520482" lon="8.808144">
        <ele>179.755662</ele>
        <time>2026-05-04T13:05:43.248Z</time>
      </trkpt>
      <trkpt lat="50.520539" lon="8.809148">
        <ele>177.994981</ele>
        <time>2026-05-04T13:05:49.744Z</time>
      </trkpt>
      <trkpt lat="50.520624" lon="8.810647">
        <ele>176.457824</ele>
        <time>2026-05-04T13:06:00.398Z</time>
      </trkpt>
      <trkpt lat="50.520666" lon="8.811384">
        <ele>175.702034</ele>
        <time>2026-05-04T13:06:06.410Z</time>
      </trkpt>
      <trkpt lat="50.520734" lon="8.812576">
        <ele>175.867809</ele>
        <time>2026-05-04T13:06:18.560Z</time>
      </trkpt>
      <trkpt lat="50.520752" lon="8.813256">
        <ele>176.089148</ele>
        <time>2026-05-04T13:06:26.466Z</time>
      </trkpt>
      <trkpt lat="50.520734" lon="8.813900">
        <ele>176.298790</ele>
        <time>2026-05-04T13:06:34.134Z</time>
      </trkpt>
      <trkpt lat="50.520729" lon="8.814014">
        <ele>176.335953</ele>
        <time>2026-05-04T13:06:35.545Z</time>
      </trkpt>
      <trkpt lat="50.520674" lon="8.815240">
        <ele>177.154577</ele>
        <time>2026-05-04T13:06:48.895Z</time>
      </trkpt>
      <trkpt lat="50.520622" lon="8.815508">
        <ele>177.380556</ele>
        <time>2026-05-04T13:06:51.878Z</time>
      </trkpt>
      <trkpt lat="50.520564" lon="8.815662">
        <ele>177.524910</ele>
        <time>2026-05-04T13:06:53.853Z</time>
      </trkpt>
      <trkpt lat="50.520416" lon="8.815930">
        <ele>177.811196</ele>
        <time>2026-05-04T13:06:57.607Z</time>
      </trkpt>
      <trkpt lat="50.520275" lon="8.816184">
        <ele>178.083136</ele>
        <time>2026-05-04T13:07:01.735Z</time>
      </trkpt>
      <trkpt lat="50.520129" lon="8.816443">
        <ele>178.362294</ele>
        <time>2026-05-04T13:07:06.483Z</time>
      </trkpt>
      <trkpt lat="50.520262" lon="8.816500">
        <ele>178.537150</ele>
        <time>2026-05-04T13:07:09.867Z</time>
      </trkpt>
      <trkpt lat="50.520349" lon="8.816517">
        <ele>178.648355</ele>
        <time>2026-05-04T13:07:12.106Z</time>
      </trkpt>
      <trkpt lat="50.520741" lon="8.816609">
        <ele>179.950275</ele>
        <time>2026-05-04T13:07:22.534Z</time>
      </trkpt>
      <trkpt lat="50.520838" lon="8.816620">
        <ele>180.310048</ele>
        <time>2026-05-04T13:07:25.422Z</time>
      </trkpt>
      <trkpt lat="50.520975" lon="8.816649">
        <ele>180.821435</ele>
        <time>2026-05-04T13:07:29.632Z</time>
      </trkpt>
      <trkpt lat="50.521296" lon="8.816717">
        <ele>182.019664</ele>
        <time>2026-05-04T13:07:40.354Z</time>
      </trkpt>
      <trkpt lat="50.522246" lon="8.816917">
        <ele>185.453073</ele>
        <time>2026-05-04T13:08:11.363Z</time>
      </trkpt>
      <trkpt lat="50.522527" lon="8.816977">
        <ele>185.837886</ele>
        <time>2026-05-04T13:08:18.742Z</time>
      </trkpt>
      <trkpt lat="50.523117" lon="8.817106">
        <ele>186.646211</ele>
        <time>2026-05-04T13:08:32.193Z</time>
      </trkpt>
      <trkpt lat="50.523557" lon="8.817194">
        <ele>187.248097</ele>
        <time>2026-05-04T13:08:39.973Z</time>
      </trkpt>
      <trkpt lat="50.524044" lon="8.817302">
        <ele>187.728772</ele>
        <time>2026-05-04T13:08:46.541Z</time>
      </trkpt>
      <trkpt lat="50.524015" lon="8.817752">
        <ele>187.279190</ele>
        <time>2026-05-04T13:08:50.073Z</time>
      </trkpt>
      <trkpt lat="50.523997" lon="8.817924">
        <ele>187.105925</ele>
        <time>2026-05-04T13:08:51.462Z</time>
      </trkpt>
      <trkpt lat="50.523947" lon="8.818328">
        <ele>186.696820</ele>
        <time>2026-05-04T13:08:54.628Z</time>
      </trkpt>
      <trkpt lat="50.523787" lon="8.818990">
        <ele>185.992859</ele>
        <time>2026-05-04T13:08:59.640Z</time>
      </trkpt>
      <trkpt lat="50.523706" lon="8.819225">
        <ele>185.727152</ele>
        <time>2026-05-04T13:09:01.438Z</time>
      </trkpt>
      <trkpt lat="50.523642" lon="8.819232">
        <ele>185.626849</ele>
        <time>2026-05-04T13:09:02.138Z</time>
      </trkpt>
      <trkpt lat="50.523610" lon="8.819304">
        <ele>185.539528</ele>
        <time>2026-05-04T13:09:02.720Z</time>
      </trkpt>
      <trkpt lat="50.523620" lon="8.819387">
        <ele>185.455559</ele>
        <time>2026-05-04T13:09:03.299Z</time>
      </trkpt>
      <trkpt lat="50.523654" lon="8.819431">
        <ele>185.386722</ele>
        <time>2026-05-04T13:09:03.780Z</time>
      </trkpt>
      <trkpt lat="50.523635" lon="8.819531">
        <ele>185.282979</ele>
        <time>2026-05-04T13:09:04.473Z</time>
      </trkpt>
      <trkpt lat="50.523554" lon="8.819895">
        <ele>184.805013</ele>
        <time>2026-05-04T13:09:07.092Z</time>
      </trkpt>
      <trkpt lat="50.523416" lon="8.820459">
        <ele>183.718372</ele>
        <time>2026-05-04T13:09:11.243Z</time>
      </trkpt>
      <trkpt lat="50.523366" lon="8.820661">
        <ele>183.328598</ele>
        <time>2026-05-04T13:09:12.734Z</time>
      </trkpt>
      <trkpt lat="50.523248" lon="8.821138">
        <ele>182.408260</ele>
        <time>2026-05-04T13:09:16.136Z</time>
      </trkpt>
      <trkpt lat="50.523226" lon="8.821241">
        <ele>182.212882</ele>
        <time>2026-05-04T13:09:16.842Z</time>
      </trkpt>
      <trkpt lat="50.523067" lon="8.822026">
        <ele>180.731461</ele>
        <time>2026-05-04T13:09:22.118Z</time>
      </trkpt>
      <trkpt lat="50.522844" lon="8.823134">
        <ele>178.522608</ele>
        <time>2026-05-04T13:09:29.635Z</time>
      </trkpt>
      <trkpt lat="50.522761" lon="8.823482">
        <ele>177.792478</ele>
        <time>2026-05-04T13:09:31.977Z</time>
      </trkpt>
      <trkpt lat="50.522578" lon="8.824066">
        <ele>176.513492</ele>
        <time>2026-05-04T13:09:36.073Z</time>
      </trkpt>
      <trkpt lat="50.522316" lon="8.824981">
        <ele>174.542172</ele>
        <time>2026-05-04T13:09:42.727Z</time>
      </trkpt>
      <trkpt lat="50.522176" lon="8.824875">
        <ele>174.139504</ele>
        <time>2026-05-04T13:09:44.411Z</time>
      </trkpt>
      <trkpt lat="50.522096" lon="8.824763">
        <ele>173.891200</ele>
        <time>2026-05-04T13:09:45.552Z</time>
      </trkpt>
      <trkpt lat="50.521591" lon="8.823976">
        <ele>172.243019</ele>
        <time>2026-05-04T13:09:53.205Z</time>
      </trkpt>
      <trkpt lat="50.521456" lon="8.823868">
        <ele>171.891872</ele>
        <time>2026-05-04T13:09:54.839Z</time>
      </trkpt>
      <trkpt lat="50.521405" lon="8.823981">
        <ele>171.687606</ele>
        <time>2026-05-04T13:09:55.781Z</time>
      </trkpt>
      <trkpt lat="50.521387" lon="8.824178">
        <ele>171.394239</ele>
        <time>2026-05-04T13:09:57.152Z</time>
      </trkpt>
      <trkpt lat="50.521375" lon="8.825339">
        <ele>169.823837</ele>
        <time>2026-05-04T13:10:05.047Z</time>
      </trkpt>
      <trkpt lat="50.521374" lon="8.825604">
        <ele>169.539365</ele>
        <time>2026-05-04T13:10:06.821Z</time>
      </trkpt>
      <trkpt lat="50.521361" lon="8.825764">
        <ele>169.366215</ele>
        <time>2026-05-04T13:10:07.910Z</time>
      </trkpt>
      <trkpt lat="50.521297" lon="8.825973">
        <ele>169.117196</ele>
        <time>2026-05-04T13:10:09.494Z</time>
      </trkpt>
      <trkpt lat="50.521289" lon="8.825999">
        <ele>169.086189</ele>
        <time>2026-05-04T13:10:09.698Z</time>
      </trkpt>
      <trkpt lat="50.521058" lon="8.826709">
        <ele>168.230036</ele>
        <time>2026-05-04T13:10:15.378Z</time>
      </trkpt>
      <trkpt lat="50.520748" lon="8.827357">
        <ele>167.359509</ele>
        <time>2026-05-04T13:10:21.575Z</time>
      </trkpt>
      <trkpt lat="50.520362" lon="8.828103">
        <ele>166.942088</ele>
        <time>2026-05-04T13:10:29.584Z</time>
      </trkpt>
      <trkpt lat="50.520057" lon="8.828702">
        <ele>166.722692</ele>
        <time>2026-05-04T13:10:36.023Z</time>
      </trkpt>
      <trkpt lat="50.519962" lon="8.828888">
        <ele>166.654483</ele>
        <time>2026-05-04T13:10:38.052Z</time>
      </trkpt>
      <trkpt lat="50.519933" lon="8.828944">
        <ele>166.633835</ele>
        <time>2026-05-04T13:10:38.659Z</time>
      </trkpt>
      <trkpt lat="50.519668" lon="8.829477">
        <ele>166.440395</ele>
        <time>2026-05-04T13:10:44.634Z</time>
      </trkpt>
      <trkpt lat="50.519483" lon="8.829945">
        <ele>166.378406</ele>
        <time>2026-05-04T13:10:49.783Z</time>
      </trkpt>
      <trkpt lat="50.519411" lon="8.830136">
        <ele>166.397185</ele>
        <time>2026-05-04T13:10:51.885Z</time>
      </trkpt>
      <trkpt lat="50.519296" lon="8.830422">
        <ele>166.425804</ele>
        <time>2026-05-04T13:10:55.079Z</time>
      </trkpt>
      <trkpt lat="50.518962" lon="8.831273">
        <ele>166.510384</ele>
        <time>2026-05-04T13:11:04.570Z</time>
      </trkpt>
      <trkpt lat="50.518723" lon="8.831774">
        <ele>166.563355</ele>
        <time>2026-05-04T13:11:11.198Z</time>
      </trkpt>
      <trkpt lat="50.518380" lon="8.832409">
        <ele>166.640441</ele>
        <time>2026-05-04T13:11:19.981Z</time>
      </trkpt>
      <trkpt lat="50.518333" lon="8.832474">
        <ele>166.650216</ele>
        <time>2026-05-04T13:11:20.905Z</time>
      </trkpt>
      <trkpt lat="50.517998" lon="8.832843">
        <ele>166.714094</ele>
        <time>2026-05-04T13:11:27.040Z</time>
      </trkpt>
      <trkpt lat="50.517892" lon="8.832940">
        <ele>166.733248</ele>
        <time>2026-05-04T13:11:28.889Z</time>
      </trkpt>
      <trkpt lat="50.517743" lon="8.832556">
        <ele>166.777923</ele>
        <time>2026-05-04T13:11:33.214Z</time>
      </trkpt>
      <trkpt lat="50.517269" lon="8.831020">
        <ele>167.064596</ele>
        <time>2026-05-04T13:11:49.769Z</time>
      </trkpt>
      <trkpt lat="50.517141" lon="8.830790">
        <ele>167.145221</ele>
        <time>2026-05-04T13:11:52.849Z</time>
      </trkpt>
      <trkpt lat="50.517032" lon="8.830667">
        <ele>167.200875</ele>
        <time>2026-05-04T13:11:55.029Z</time>
      </trkpt>
      <trkpt lat="50.516586" lon="8.830322">
        <ele>167.407065</ele>
        <time>2026-05-04T13:12:03.423Z</time>
      </trkpt>
      <trkpt lat="50.516129" lon="8.829999">
        <ele>167.614915</ele>
        <time>2026-05-04T13:12:12.190Z</time>
      </trkpt>
      <trkpt lat="50.515632" lon="8.829473">
        <ele>167.938396</ele>
        <time>2026-05-04T13:12:22.577Z</time>
      </trkpt>
      <trkpt lat="50.514712" lon="8.828293">
        <ele>168.584393</ele>
        <time>2026-05-04T13:12:42.464Z</time>
      </trkpt>
      <trkpt lat="50.514501" lon="8.828086">
        <ele>168.742619</ele>
        <time>2026-05-04T13:12:46.541Z</time>
      </trkpt>
      <trkpt lat="50.514439" lon="8.828025">
        <ele>168.790133</ele>
        <time>2026-05-04T13:12:47.759Z</time>
      </trkpt>
      <trkpt lat="50.513976" lon="8.827754">
        <ele>169.111096</ele>
        <time>2026-05-04T13:12:56.177Z</time>
      </trkpt>
      <trkpt lat="50.513473" lon="8.827583">
        <ele>169.445436</ele>
        <time>2026-05-04T13:13:05.376Z</time>
      </trkpt>
      <trkpt lat="50.512690" lon="8.827282">
        <ele>170.091161</ele>
        <time>2026-05-04T13:13:19.869Z</time>
      </trkpt>
      <trkpt lat="50.511510" lon="8.826572">
        <ele>171.415570</ele>
        <time>2026-05-04T13:13:44.299Z</time>
      </trkpt>
      <trkpt lat="50.511437" lon="8.826689">
        <ele>171.524835</ele>
        <time>2026-05-04T13:13:46.346Z</time>
      </trkpt>
      <trkpt lat="50.511315" lon="8.826985">
        <ele>171.749686</ele>
        <time>2026-05-04T13:13:50.786Z</time>
      </trkpt>
      <trkpt lat="50.511029" lon="8.827952">
        <ele>172.390514</ele>
        <time>2026-05-04T13:14:03.586Z</time>
      </trkpt>
      <trkpt lat="50.510761" lon="8.828497">
        <ele>172.804488</ele>
        <time>2026-05-04T13:14:11.210Z</time>
      </trkpt>
      <trkpt lat="50.510751" lon="8.828511">
        <ele>172.817139</ele>
        <time>2026-05-04T13:14:11.443Z</time>
      </trkpt>
      <trkpt lat="50.510626" lon="8.828694">
        <ele>172.978516</ele>
        <time>2026-05-04T13:14:14.503Z</time>
      </trkpt>
      <trkpt lat="50.510552" lon="8.828796">
        <ele>173.071499</ele>
        <time>2026-05-04T13:14:16.287Z</time>
      </trkpt>
      <trkpt lat="50.510343" lon="8.829086">
        <ele>173.334875</ele>
        <time>2026-05-04T13:14:21.430Z</time>
      </trkpt>
      <trkpt lat="50.510109" lon="8.829388">
        <ele>173.710967</ele>
        <time>2026-05-04T13:14:27.164Z</time>
      </trkpt>
      <trkpt lat="50.510062" lon="8.829342">
        <ele>173.781004</ele>
        <time>2026-05-04T13:14:28.258Z</time>
      </trkpt>
      <trkpt lat="50.509731" lon="8.828748">
        <ele>174.416404</ele>
        <time>2026-05-04T13:14:38.407Z</time>
      </trkpt>
      <trkpt lat="50.508826" lon="8.827123">
        <ele>175.897657</ele>
        <time>2026-05-04T13:15:06.696Z</time>
      </trkpt>
      <trkpt lat="50.508308" lon="8.827832">
        <ele>176.340707</ele>
        <time>2026-05-04T13:15:18.204Z</time>
      </trkpt>
      <trkpt lat="50.508175" lon="8.828014">
        <ele>176.454453</ele>
        <time>2026-05-04T13:15:20.948Z</time>
      </trkpt>
      <trkpt lat="50.508104" lon="8.828110">
        <ele>176.514863</ele>
        <time>2026-05-04T13:15:22.376Z</time>
      </trkpt>
      <trkpt lat="50.507105" lon="8.829446">
        <ele>176.936553</ele>
        <time>2026-05-04T13:15:43.179Z</time>
      </trkpt>
      <trkpt lat="50.506361" lon="8.830505">
        <ele>177.052135</ele>
        <time>2026-05-04T13:15:58.650Z</time>
      </trkpt>
      <trkpt lat="50.505956" lon="8.831201">
        <ele>176.813068</ele>
        <time>2026-05-04T13:16:07.048Z</time>
      </trkpt>
      <trkpt lat="50.505873" lon="8.831149">
        <ele>176.777466</ele>
        <time>2026-05-04T13:16:08.279Z</time>
      </trkpt>
      <trkpt lat="50.505828" lon="8.831154">
        <ele>176.759491</ele>
        <time>2026-05-04T13:16:08.904Z</time>
      </trkpt>
      <trkpt lat="50.505750" lon="8.831226">
        <ele>176.723450</ele>
        <time>2026-05-04T13:16:10.127Z</time>
      </trkpt>
      <trkpt lat="50.505712" lon="8.831364">
        <ele>176.685341</ele>
        <time>2026-05-04T13:16:11.399Z</time>
      </trkpt>
      <trkpt lat="50.505716" lon="8.831439">
        <ele>176.666267</ele>
        <time>2026-05-04T13:16:12.037Z</time>
      </trkpt>
      <trkpt lat="50.505767" lon="8.831566">
        <ele>176.628204</ele>
        <time>2026-05-04T13:16:13.281Z</time>
      </trkpt>
      <trkpt lat="50.505256" lon="8.832509">
        <ele>176.270389</ele>
        <time>2026-05-04T13:16:23.421Z</time>
      </trkpt>
      <trkpt lat="50.505229" lon="8.832563">
        <ele>176.239443</ele>
        <time>2026-05-04T13:16:23.986Z</time>
      </trkpt>
      <trkpt lat="50.504987" lon="8.833012">
        <ele>175.974296</ele>
        <time>2026-05-04T13:16:28.734Z</time>
      </trkpt>
      <trkpt lat="50.504938" lon="8.832926">
        <ele>175.922278</ele>
        <time>2026-05-04T13:16:29.689Z</time>
      </trkpt>
      <trkpt lat="50.504860" lon="8.833083">
        <ele>175.832524</ele>
        <time>2026-05-04T13:16:31.959Z</time>
      </trkpt>
      <trkpt lat="50.504784" lon="8.833222">
        <ele>175.749943</ele>
        <time>2026-05-04T13:16:34.018Z</time>
      </trkpt>
      <trkpt lat="50.504211" lon="8.834358">
        <ele>175.096739</ele>
        <time>2026-05-04T13:16:45.842Z</time>
      </trkpt>
      <trkpt lat="50.503965" lon="8.834953">
        <ele>174.796820</ele>
        <time>2026-05-04T13:16:51.680Z</time>
      </trkpt>
      <trkpt lat="50.502518" lon="8.837661">
        <ele>173.219271</ele>
        <time>2026-05-04T13:17:20.533Z</time>
      </trkpt>
      <trkpt lat="50.501842" lon="8.838857">
        <ele>172.413429</ele>
        <time>2026-05-04T13:17:33.419Z</time>
      </trkpt>
      <trkpt lat="50.499210" lon="8.843914">
        <ele>168.650622</ele>
        <time>2026-05-04T13:18:23.549Z</time>
      </trkpt>
      <trkpt lat="50.498160" lon="8.845835">
        <ele>168.969994</ele>
        <time>2026-05-04T13:18:51.482Z</time>
      </trkpt>
      <trkpt lat="50.497960" lon="8.846215">
        <ele>169.199727</ele>
        <time>2026-05-04T13:18:57.156Z</time>
      </trkpt>
      <trkpt lat="50.497696" lon="8.846635">
        <ele>169.474762</ele>
        <time>2026-05-04T13:19:03.793Z</time>
      </trkpt>
      <trkpt lat="50.496994" lon="8.847451">
        <ele>170.080728</ele>
        <time>2026-05-04T13:19:19.181Z</time>
      </trkpt>
      <trkpt lat="50.496647" lon="8.847781">
        <ele>170.324913</ele>
        <time>2026-05-04T13:19:26.407Z</time>
      </trkpt>
      <trkpt lat="50.496520" lon="8.847861">
        <ele>170.407290</ele>
        <time>2026-05-04T13:19:28.791Z</time>
      </trkpt>
      <trkpt lat="50.496286" lon="8.847938">
        <ele>170.551235</ele>
        <time>2026-05-04T13:19:32.885Z</time>
      </trkpt>
      <trkpt lat="50.496128" lon="8.848066">
        <ele>170.658256</ele>
        <time>2026-05-04T13:19:35.871Z</time>
      </trkpt>
      <trkpt lat="50.495791" lon="8.848245">
        <ele>170.872434</ele>
        <time>2026-05-04T13:19:41.791Z</time>
      </trkpt>
      <trkpt lat="50.495219" lon="8.848409">
        <ele>171.084112</ele>
        <time>2026-05-04T13:19:51.606Z</time>
      </trkpt>
      <trkpt lat="50.494829" lon="8.848466">
        <ele>171.166747</ele>
        <time>2026-05-04T13:19:58.266Z</time>
      </trkpt>
      <trkpt lat="50.494796" lon="8.848466">
        <ele>171.173709</ele>
        <time>2026-05-04T13:19:58.826Z</time>
      </trkpt>
      <trkpt lat="50.493884" lon="8.848449">
        <ele>171.366132</ele>
        <time>2026-05-04T13:20:13.135Z</time>
      </trkpt>
      <trkpt lat="50.493539" lon="8.848114">
        <ele>170.992866</ele>
        <time>2026-05-04T13:20:18.688Z</time>
      </trkpt>
      <trkpt lat="50.493472" lon="8.848049">
        <ele>170.888043</ele>
        <time>2026-05-04T13:20:19.717Z</time>
      </trkpt>
      <trkpt lat="50.493378" lon="8.848050">
        <ele>170.762892</ele>
        <time>2026-05-04T13:20:20.902Z</time>
      </trkpt>
      <trkpt lat="50.493238" lon="8.848280">
        <ele>170.493280</ele>
        <time>2026-05-04T13:20:23.394Z</time>
      </trkpt>
      <trkpt lat="50.493158" lon="8.848343">
        <ele>170.374151</ele>
        <time>2026-05-04T13:20:24.446Z</time>
      </trkpt>
      <trkpt lat="50.492054" lon="8.848444">
        <ele>168.937136</ele>
        <time>2026-05-04T13:20:36.571Z</time>
      </trkpt>
      <trkpt lat="50.491579" lon="8.848620">
        <ele>168.535564</ele>
        <time>2026-05-04T13:20:41.975Z</time>
      </trkpt>
      <trkpt lat="50.490900" lon="8.848999">
        <ele>167.942659</ele>
        <time>2026-05-04T13:20:50.889Z</time>
      </trkpt>
      <trkpt lat="50.490283" lon="8.849472">
        <ele>167.651402</ele>
        <time>2026-05-04T13:21:01.764Z</time>
      </trkpt>
      <trkpt lat="50.489819" lon="8.850011">
        <ele>168.128695</ele>
        <time>2026-05-04T13:21:12.795Z</time>
      </trkpt>
      <trkpt lat="50.489469" lon="8.850491">
        <ele>168.512951</ele>
        <time>2026-05-04T13:21:21.846Z</time>
      </trkpt>
      <trkpt lat="50.489376" lon="8.850475">
        <ele>168.590344</ele>
        <time>2026-05-04T13:21:23.611Z</time>
      </trkpt>
      <trkpt lat="50.489217" lon="8.850132">
        <ele>168.813705</ele>
        <time>2026-05-04T13:21:28.668Z</time>
      </trkpt>
      <trkpt lat="50.489143" lon="8.850167">
        <ele>168.877633</ele>
        <time>2026-05-04T13:21:30.080Z</time>
      </trkpt>
      <trkpt lat="50.488737" lon="8.849148">
        <ele>169.483587</ele>
        <time>2026-05-04T13:21:43.693Z</time>
      </trkpt>
      <trkpt lat="50.487861" lon="8.847333">
        <ele>170.643711</ele>
        <time>2026-05-04T13:22:09.438Z</time>
      </trkpt>
      <trkpt lat="50.486878" lon="8.845342">
        <ele>172.073527</ele>
        <time>2026-05-04T13:22:38.953Z</time>
      </trkpt>
      <trkpt lat="50.486594" lon="8.844767">
        <ele>172.649895</ele>
        <time>2026-05-04T13:22:47.825Z</time>
      </trkpt>
      <trkpt lat="50.485933" lon="8.843424">
        <ele>173.994327</ele>
        <time>2026-05-04T13:23:09.212Z</time>
      </trkpt>
      <trkpt lat="50.485068" lon="8.841665">
        <ele>176.447357</ele>
        <time>2026-05-04T13:23:39.176Z</time>
      </trkpt>
      <trkpt lat="50.484430" lon="8.840175">
        <ele>178.964570</ele>
        <time>2026-05-04T13:24:06.901Z</time>
      </trkpt>
      <trkpt lat="50.484423" lon="8.840153">
        <ele>179.005181</ele>
        <time>2026-05-04T13:24:07.320Z</time>
      </trkpt>
      <trkpt lat="50.483753" lon="8.838553">
        <ele>182.158767</ele>
        <time>2026-05-04T13:24:39.207Z</time>
      </trkpt>
      <trkpt lat="50.483459" lon="8.837838">
        <ele>183.047701</ele>
        <time>2026-05-04T13:24:52.401Z</time>
      </trkpt>
      <trkpt lat="50.483018" lon="8.836794">
        <ele>184.356213</ele>
        <time>2026-05-04T13:25:09.333Z</time>
      </trkpt>
      <trkpt lat="50.482047" lon="8.834475">
        <ele>185.942536</ele>
        <time>2026-05-04T13:25:39.692Z</time>
      </trkpt>
      <trkpt lat="50.481786" lon="8.833851">
        <ele>186.248422</ele>
        <time>2026-05-04T13:25:48.160Z</time>
      </trkpt>
      <trkpt lat="50.481693" lon="8.833646">
        <ele>186.097106</ele>
        <time>2026-05-04T13:25:51.122Z</time>
      </trkpt>
      <trkpt lat="50.481558" lon="8.833453">
        <ele>185.910589</ele>
        <time>2026-05-04T13:25:54.477Z</time>
      </trkpt>
      <trkpt lat="50.481380" lon="8.833324">
        <ele>185.710262</ele>
        <time>2026-05-04T13:25:57.813Z</time>
      </trkpt>
      <trkpt lat="50.480781" lon="8.833194">
        <ele>185.092279</ele>
        <time>2026-05-04T13:26:05.881Z</time>
      </trkpt>
      <trkpt lat="50.480632" lon="8.833153">
        <ele>184.937686</ele>
        <time>2026-05-04T13:26:07.613Z</time>
      </trkpt>
      <trkpt lat="50.480512" lon="8.833125">
        <ele>184.813702</ele>
        <time>2026-05-04T13:26:08.950Z</time>
      </trkpt>
      <trkpt lat="50.480216" lon="8.833033">
        <ele>184.505333</ele>
        <time>2026-05-04T13:26:12.147Z</time>
      </trkpt>
      <trkpt lat="50.480078" lon="8.832928">
        <ele>184.147471</ele>
        <time>2026-05-04T13:26:13.677Z</time>
      </trkpt>
      <trkpt lat="50.479787" lon="8.832542">
        <ele>182.578927</ele>
        <time>2026-05-04T13:26:17.339Z</time>
      </trkpt>
      <trkpt lat="50.479336" lon="8.832079">
        <ele>180.359990</ele>
        <time>2026-05-04T13:26:22.389Z</time>
      </trkpt>
      <trkpt lat="50.479230" lon="8.831962">
        <ele>179.826437</ele>
        <time>2026-05-04T13:26:23.609Z</time>
      </trkpt>
      <trkpt lat="50.478972" lon="8.831726">
        <ele>178.596811</ele>
        <time>2026-05-04T13:26:26.474Z</time>
      </trkpt>
      <trkpt lat="50.478802" lon="8.831687">
        <ele>177.889162</ele>
        <time>2026-05-04T13:26:28.166Z</time>
      </trkpt>
      <trkpt lat="50.478593" lon="8.831850">
        <ele>176.943135</ele>
        <time>2026-05-04T13:26:30.500Z</time>
      </trkpt>
      <trkpt lat="50.478342" lon="8.831942">
        <ele>176.085226</ele>
        <time>2026-05-04T13:26:33.145Z</time>
      </trkpt>
      <trkpt lat="50.477478" lon="8.832346">
        <ele>173.084681</ele>
        <time>2026-05-04T13:26:42.390Z</time>
      </trkpt>
      <trkpt lat="50.477411" lon="8.832367">
        <ele>172.857271</ele>
        <time>2026-05-04T13:26:43.084Z</time>
      </trkpt>
      <trkpt lat="50.477341" lon="8.832383">
        <ele>172.621816</ele>
        <time>2026-05-04T13:26:43.779Z</time>
      </trkpt>
      <trkpt lat="50.477039" lon="8.832417">
        <ele>171.613998</ele>
        <time>2026-05-04T13:26:46.795Z</time>
      </trkpt>
      <trkpt lat="50.476960" lon="8.832421">
        <ele>171.350901</ele>
        <time>2026-05-04T13:26:47.588Z</time>
      </trkpt>
      <trkpt lat="50.476718" lon="8.832502">
        <ele>170.634082</ele>
        <time>2026-05-04T13:26:50.026Z</time>
      </trkpt>
      <trkpt lat="50.476556" lon="8.832629">
        <ele>170.162206</ele>
        <time>2026-05-04T13:26:51.811Z</time>
      </trkpt>
      <trkpt lat="50.476471" lon="8.832739">
        <ele>169.875196</ele>
        <time>2026-05-04T13:26:52.887Z</time>
      </trkpt>
      <trkpt lat="50.476389" lon="8.832845">
        <ele>169.598439</ele>
        <time>2026-05-04T13:26:53.940Z</time>
      </trkpt>
      <trkpt lat="50.476008" lon="8.833487">
        <ele>168.142351</ele>
        <time>2026-05-04T13:26:59.546Z</time>
      </trkpt>
      <trkpt lat="50.475830" lon="8.833787">
        <ele>167.462001</ele>
        <time>2026-05-04T13:27:02.338Z</time>
      </trkpt>
      <trkpt lat="50.474648" lon="8.835704">
        <ele>165.793012</ele>
        <time>2026-05-04T13:27:24.278Z</time>
      </trkpt>
      <trkpt lat="50.474188" lon="8.836303">
        <ele>165.597320</ele>
        <time>2026-05-04T13:27:33.428Z</time>
      </trkpt>
      <trkpt lat="50.473767" lon="8.836789">
        <ele>165.855494</ele>
        <time>2026-05-04T13:27:42.032Z</time>
      </trkpt>
      <trkpt lat="50.473460" lon="8.837106">
        <ele>166.037041</ele>
        <time>2026-05-04T13:27:48.219Z</time>
      </trkpt>
      <trkpt lat="50.472929" lon="8.837602">
        <ele>166.342331</ele>
        <time>2026-05-04T13:27:58.803Z</time>
      </trkpt>
      <trkpt lat="50.472467" lon="8.837970">
        <ele>166.954402</ele>
        <time>2026-05-04T13:28:08.084Z</time>
      </trkpt>
      <trkpt lat="50.471928" lon="8.838339">
        <ele>167.965533</ele>
        <time>2026-05-04T13:28:19.552Z</time>
      </trkpt>
      <trkpt lat="50.471337" lon="8.838715">
        <ele>169.062086</ele>
        <time>2026-05-04T13:28:33.850Z</time>
      </trkpt>
      <trkpt lat="50.471096" lon="8.838869">
        <ele>169.509520</ele>
        <time>2026-05-04T13:28:40.301Z</time>
      </trkpt>
      <trkpt lat="50.470207" lon="8.839432">
        <ele>173.206624</ele>
        <time>2026-05-04T13:29:08.185Z</time>
      </trkpt>
      <trkpt lat="50.469055" lon="8.840153">
        <ele>178.339322</ele>
        <time>2026-05-04T13:29:49.475Z</time>
      </trkpt>
      <trkpt lat="50.468292" lon="8.840705">
        <ele>182.259327</ele>
        <time>2026-05-04T13:30:17.876Z</time>
      </trkpt>
      <trkpt lat="50.467702" lon="8.841230">
        <ele>185.374507</ele>
        <time>2026-05-04T13:30:40.479Z</time>
      </trkpt>
      <trkpt lat="50.467313" lon="8.841622">
        <ele>187.297215</ele>
        <time>2026-05-04T13:30:56.004Z</time>
      </trkpt>
      <trkpt lat="50.467027" lon="8.841860">
        <ele>188.643704</ele>
        <time>2026-05-04T13:31:06.597Z</time>
      </trkpt>
      <trkpt lat="50.466830" lon="8.841980">
        <ele>189.522753</ele>
        <time>2026-05-04T13:31:13.348Z</time>
      </trkpt>
      <trkpt lat="50.466530" lon="8.842101">
        <ele>190.811349</ele>
        <time>2026-05-04T13:31:22.950Z</time>
      </trkpt>
      <trkpt lat="50.466212" lon="8.842160">
        <ele>192.143549</ele>
        <time>2026-05-04T13:31:32.538Z</time>
      </trkpt>
      <trkpt lat="50.465879" lon="8.842143">
        <ele>192.916000</ele>
        <time>2026-05-04T13:31:42.023Z</time>
      </trkpt>
      <trkpt lat="50.465365" lon="8.841963">
        <ele>193.856734</ele>
        <time>2026-05-04T13:31:55.417Z</time>
      </trkpt>
      <trkpt lat="50.465099" lon="8.841783">
        <ele>194.374118</ele>
        <time>2026-05-04T13:32:02.091Z</time>
      </trkpt>
      <trkpt lat="50.463711" lon="8.840764">
        <ele>194.453643</ele>
        <time>2026-05-04T13:32:26.278Z</time>
      </trkpt>
      <trkpt lat="50.463054" lon="8.840397">
        <ele>193.406536</ele>
        <time>2026-05-04T13:32:33.682Z</time>
      </trkpt>
      <trkpt lat="50.462526" lon="8.840145">
        <ele>191.928760</ele>
        <time>2026-05-04T13:32:39.175Z</time>
      </trkpt>
      <trkpt lat="50.462120" lon="8.839971">
        <ele>190.240781</ele>
        <time>2026-05-04T13:32:43.277Z</time>
      </trkpt>
      <trkpt lat="50.461214" lon="8.839554">
        <ele>186.454049</ele>
        <time>2026-05-04T13:32:52.401Z</time>
      </trkpt>
      <trkpt lat="50.460653" lon="8.839297">
        <ele>184.066547</ele>
        <time>2026-05-04T13:32:58.047Z</time>
      </trkpt>
      <trkpt lat="50.460141" lon="8.839102">
        <ele>181.897305</ele>
        <time>2026-05-04T13:33:03.170Z</time>
      </trkpt>
      <trkpt lat="50.459920" lon="8.839074">
        <ele>180.984381</ele>
        <time>2026-05-04T13:33:05.325Z</time>
      </trkpt>
      <trkpt lat="50.459063" lon="8.838989">
        <ele>177.618179</ele>
        <time>2026-05-04T13:33:13.685Z</time>
      </trkpt>
      <trkpt lat="50.458402" lon="8.838942">
        <ele>175.408383</ele>
        <time>2026-05-04T13:33:20.247Z</time>
      </trkpt>
      <trkpt lat="50.456715" lon="8.838785">
        <ele>170.489178</ele>
        <time>2026-05-04T13:33:37.655Z</time>
      </trkpt>
      <trkpt lat="50.455428" lon="8.838415">
        <ele>167.487165</ele>
        <time>2026-05-04T13:33:51.964Z</time>
      </trkpt>
      <trkpt lat="50.455068" lon="8.838316">
        <ele>166.789352</ele>
        <time>2026-05-04T13:33:56.094Z</time>
      </trkpt>
      <trkpt lat="50.455047" lon="8.838308">
        <ele>166.748094</ele>
        <time>2026-05-04T13:33:56.336Z</time>
      </trkpt>
      <trkpt lat="50.454073" lon="8.838081">
        <ele>164.868049</ele>
        <time>2026-05-04T13:34:07.146Z</time>
      </trkpt>
      <trkpt lat="50.453462" lon="8.837912">
        <ele>163.970767</ele>
        <time>2026-05-04T13:34:14.119Z</time>
      </trkpt>
      <trkpt lat="50.452975" lon="8.837799">
        <ele>163.329063</ele>
        <time>2026-05-04T13:34:19.741Z</time>
      </trkpt>
      <trkpt lat="50.452833" lon="8.838729">
        <ele>162.535310</ele>
        <time>2026-05-04T13:34:27.058Z</time>
      </trkpt>
      <trkpt lat="50.452814" lon="8.838852">
        <ele>162.430263</ele>
        <time>2026-05-04T13:34:28.251Z</time>
      </trkpt>
      <trkpt lat="50.452727" lon="8.839745">
        <ele>161.701772</ele>
        <time>2026-05-04T13:34:36.183Z</time>
      </trkpt>
      <trkpt lat="50.452793" lon="8.840042">
        <ele>161.450550</ele>
        <time>2026-05-04T13:34:38.660Z</time>
      </trkpt>
      <trkpt lat="50.452952" lon="8.840244">
        <ele>161.194041</ele>
        <time>2026-05-04T13:34:41.134Z</time>
      </trkpt>
      <trkpt lat="50.453084" lon="8.840373">
        <ele>160.999040</ele>
        <time>2026-05-04T13:34:42.963Z</time>
      </trkpt>
      <trkpt lat="50.453094" lon="8.840430">
        <ele>160.951822</ele>
        <time>2026-05-04T13:34:43.426Z</time>
      </trkpt>
      <trkpt lat="50.453038" lon="8.840622">
        <ele>160.783166</ele>
        <time>2026-05-04T13:34:44.979Z</time>
      </trkpt>
      <trkpt lat="50.452852" lon="8.840893">
        <ele>160.464941</ele>
        <time>2026-05-04T13:34:47.859Z</time>
      </trkpt>
      <trkpt lat="50.452645" lon="8.841193">
        <ele>160.111652</ele>
        <time>2026-05-04T13:34:50.995Z</time>
      </trkpt>
      <trkpt lat="50.452542" lon="8.841855">
        <ele>159.309515</ele>
        <time>2026-05-04T13:34:55.696Z</time>
      </trkpt>
      <trkpt lat="50.452368" lon="8.842681">
        <ele>158.188952</ele>
        <time>2026-05-04T13:35:01.581Z</time>
      </trkpt>
      <trkpt lat="50.452356" lon="8.842762">
        <ele>158.081841</ele>
        <time>2026-05-04T13:35:02.162Z</time>
      </trkpt>
      <trkpt lat="50.452294" lon="8.843573">
        <ele>157.029803</ele>
        <time>2026-05-04T13:35:07.870Z</time>
      </trkpt>
      <trkpt lat="50.452306" lon="8.845327">
        <ele>155.111980</ele>
        <time>2026-05-04T13:35:20.562Z</time>
      </trkpt>
      <trkpt lat="50.452307" lon="8.845603">
        <ele>154.833335</ele>
        <time>2026-05-04T13:35:22.549Z</time>
      </trkpt>
      <trkpt lat="50.452335" lon="8.846447">
        <ele>153.980104</ele>
        <time>2026-05-04T13:35:28.680Z</time>
      </trkpt>
      <trkpt lat="50.452298" lon="8.847145">
        <ele>153.324820</ele>
        <time>2026-05-04T13:35:33.816Z</time>
      </trkpt>
      <trkpt lat="50.451832" lon="8.850177">
        <ele>150.993738</ele>
        <time>2026-05-04T13:35:57.604Z</time>
      </trkpt>
      <trkpt lat="50.451603" lon="8.851669">
        <ele>150.076635</ele>
        <time>2026-05-04T13:36:09.601Z</time>
      </trkpt>
      <trkpt lat="50.451149" lon="8.854750">
        <ele>148.633378</ele>
        <time>2026-05-04T13:36:35.092Z</time>
      </trkpt>
      <trkpt lat="50.450902" lon="8.856668">
        <ele>148.129982</ele>
        <time>2026-05-04T13:36:53.199Z</time>
      </trkpt>
      <trkpt lat="50.450570" lon="8.859236">
        <ele>147.520810</ele>
        <time>2026-05-04T13:37:15.122Z</time>
      </trkpt>
      <trkpt lat="50.450139" lon="8.861111">
        <ele>147.350925</ele>
        <time>2026-05-04T13:37:32.299Z</time>
      </trkpt>
      <trkpt lat="50.449889" lon="8.862153">
        <ele>147.830040</ele>
        <time>2026-05-04T13:37:45.016Z</time>
      </trkpt>
      <trkpt lat="50.449600" lon="8.863360">
        <ele>148.405210</ele>
        <time>2026-05-04T13:38:00.924Z</time>
      </trkpt>
      <trkpt lat="50.449164" lon="8.865235">
        <ele>149.895660</ele>
        <time>2026-05-04T13:38:25.273Z</time>
      </trkpt>
      <trkpt lat="50.448970" lon="8.866082">
        <ele>150.562030</ele>
        <time>2026-05-04T13:38:36.711Z</time>
      </trkpt>
      <trkpt lat="50.448813" lon="8.867015">
        <ele>151.241826</ele>
        <time>2026-05-04T13:38:49.613Z</time>
      </trkpt>
      <trkpt lat="50.448358" lon="8.870733">
        <ele>152.700451</ele>
        <time>2026-05-04T13:39:33.822Z</time>
      </trkpt>
      <trkpt lat="50.445770" lon="8.869926">
        <ele>150.011179</ele>
        <time>2026-05-04T13:40:17.580Z</time>
      </trkpt>
      <trkpt lat="50.444775" lon="8.869591">
        <ele>149.090139</ele>
        <time>2026-05-04T13:40:34.797Z</time>
      </trkpt>
      <trkpt lat="50.443258" lon="8.868850">
        <ele>149.053715</ele>
        <time>2026-05-04T13:41:07.361Z</time>
      </trkpt>
      <trkpt lat="50.442902" lon="8.870164">
        <ele>149.338818</ele>
        <time>2026-05-04T13:41:23.910Z</time>
      </trkpt>
      <trkpt lat="50.442513" lon="8.871607">
        <ele>149.680954</ele>
        <time>2026-05-04T13:41:41.206Z</time>
      </trkpt>
      <trkpt lat="50.441251" lon="8.876157">
        <ele>148.670900</ele>
        <time>2026-05-04T13:42:24.102Z</time>
      </trkpt>
      <trkpt lat="50.441223" lon="8.876258">
        <ele>148.624957</ele>
        <time>2026-05-04T13:42:24.994Z</time>
      </trkpt>
      <trkpt lat="50.440821" lon="8.877723">
        <ele>147.888254</ele>
        <time>2026-05-04T13:42:37.608Z</time>
      </trkpt>
      <trkpt lat="50.440131" lon="8.880298">
        <ele>145.662799</ele>
        <time>2026-05-04T13:42:58.601Z</time>
      </trkpt>
      <trkpt lat="50.439568" lon="8.882398">
        <ele>143.646056</ele>
        <time>2026-05-04T13:43:15.406Z</time>
      </trkpt>
      <trkpt lat="50.439322" lon="8.883309">
        <ele>143.015819</ele>
        <time>2026-05-04T13:43:22.722Z</time>
      </trkpt>
      <trkpt lat="50.438826" lon="8.884659">
        <ele>142.269920</ele>
        <time>2026-05-04T13:43:35.455Z</time>
      </trkpt>
      <trkpt lat="50.438490" lon="8.884448">
        <ele>141.997989</ele>
        <time>2026-05-04T13:43:40.542Z</time>
      </trkpt>
      <trkpt lat="50.438158" lon="8.884310">
        <ele>141.781990</ele>
        <time>2026-05-04T13:43:45.411Z</time>
      </trkpt>
      <trkpt lat="50.437425" lon="8.884062">
        <ele>141.329604</ele>
        <time>2026-05-04T13:43:55.921Z</time>
      </trkpt>
      <trkpt lat="50.437144" lon="8.883937">
        <ele>141.153397</ele>
        <time>2026-05-04T13:43:59.743Z</time>
      </trkpt>
      <trkpt lat="50.436943" lon="8.884573">
        <ele>140.880568</ele>
        <time>2026-05-04T13:44:05.111Z</time>
      </trkpt>
      <trkpt lat="50.436604" lon="8.885410">
        <ele>139.897296</ele>
        <time>2026-05-04T13:44:12.437Z</time>
      </trkpt>
      <trkpt lat="50.436561" lon="8.885625">
        <ele>139.669318</ele>
        <time>2026-05-04T13:44:14.074Z</time>
      </trkpt>
      <trkpt lat="50.436572" lon="8.885867">
        <ele>139.423874</ele>
        <time>2026-05-04T13:44:15.823Z</time>
      </trkpt>
      <trkpt lat="50.436576" lon="8.885927">
        <ele>139.362842</ele>
        <time>2026-05-04T13:44:16.257Z</time>
      </trkpt>
      <trkpt lat="50.436550" lon="8.886058">
        <ele>139.224029</ele>
        <time>2026-05-04T13:44:17.244Z</time>
      </trkpt>
      <trkpt lat="50.436382" lon="8.886388">
        <ele>138.796643</ele>
        <time>2026-05-04T13:44:20.265Z</time>
      </trkpt>
      <trkpt lat="50.436197" lon="8.886750">
        <ele>138.327108</ele>
        <time>2026-05-04T13:44:23.585Z</time>
      </trkpt>
      <trkpt lat="50.436111" lon="8.886994">
        <ele>138.044987</ele>
        <time>2026-05-04T13:44:25.583Z</time>
      </trkpt>
      <trkpt lat="50.436051" lon="8.887329">
        <ele>137.531380</ele>
        <time>2026-05-04T13:44:28.065Z</time>
      </trkpt>
      <trkpt lat="50.435996" lon="8.887631">
        <ele>137.052390</ele>
        <time>2026-05-04T13:44:30.279Z</time>
      </trkpt>
      <trkpt lat="50.435979" lon="8.888174">
        <ele>136.223344</ele>
        <time>2026-05-04T13:44:34.025Z</time>
      </trkpt>
      <trkpt lat="50.435990" lon="8.888620">
        <ele>135.542708</ele>
        <time>2026-05-04T13:44:37.059Z</time>
      </trkpt>
      <trkpt lat="50.436023" lon="8.888955">
        <ele>135.025777</ele>
        <time>2026-05-04T13:44:39.337Z</time>
      </trkpt>
      <trkpt lat="50.436051" lon="8.889806">
        <ele>133.726318</ele>
        <time>2026-05-04T13:44:44.948Z</time>
      </trkpt>
      <trkpt lat="50.436109" lon="8.890821">
        <ele>132.087354</ele>
        <time>2026-05-04T13:44:51.545Z</time>
      </trkpt>
      <trkpt lat="50.436158" lon="8.891739">
        <ele>130.604712</ele>
        <time>2026-05-04T13:44:57.652Z</time>
      </trkpt>
      <trkpt lat="50.436340" lon="8.893002">
        <ele>128.919757</ele>
        <time>2026-05-04T13:45:06.788Z</time>
      </trkpt>
      <trkpt lat="50.436360" lon="8.893341">
        <ele>128.713759</ele>
        <time>2026-05-04T13:45:09.354Z</time>
      </trkpt>
      <trkpt lat="50.436276" lon="8.893923">
        <ele>128.352679</ele>
        <time>2026-05-04T13:45:14.025Z</time>
      </trkpt>
      <trkpt lat="50.436122" lon="8.894506">
        <ele>127.970787</ele>
        <time>2026-05-04T13:45:19.122Z</time>
      </trkpt>
      <trkpt lat="50.435668" lon="8.895845">
        <ele>127.368594</ele>
        <time>2026-05-04T13:45:32.203Z</time>
      </trkpt>
      <trkpt lat="50.435478" lon="8.896516">
        <ele>127.276127</ele>
        <time>2026-05-04T13:45:38.899Z</time>
      </trkpt>
      <trkpt lat="50.435395" lon="8.896880">
        <ele>127.227443</ele>
        <time>2026-05-04T13:45:42.447Z</time>
      </trkpt>
      <trkpt lat="50.435377" lon="8.896944">
        <ele>127.218633</ele>
        <time>2026-05-04T13:45:43.101Z</time>
      </trkpt>
      <trkpt lat="50.434370" lon="8.900483">
        <ele>126.805370</ele>
        <time>2026-05-04T13:46:18.258Z</time>
      </trkpt>
      <trkpt lat="50.433519" lon="8.903470">
        <ele>126.673355</ele>
        <time>2026-05-04T13:46:48.179Z</time>
      </trkpt>
      <trkpt lat="50.433477" lon="8.903655">
        <ele>126.706876</ele>
        <time>2026-05-04T13:46:50.068Z</time>
      </trkpt>
      <trkpt lat="50.432776" lon="8.906831">
        <ele>127.919169</ele>
        <time>2026-05-04T13:47:36.990Z</time>
      </trkpt>
      <trkpt lat="50.432369" lon="8.909164">
        <ele>129.992807</ele>
        <time>2026-05-04T13:48:17.782Z</time>
      </trkpt>
      <trkpt lat="50.432071" lon="8.910355">
        <ele>131.510387</ele>
        <time>2026-05-04T13:48:41.576Z</time>
      </trkpt>
      <trkpt lat="50.431831" lon="8.911459">
        <ele>132.610152</ele>
        <time>2026-05-04T13:49:01.772Z</time>
      </trkpt>
      <trkpt lat="50.431463" lon="8.913482">
        <ele>133.856790</ele>
        <time>2026-05-04T13:49:32.450Z</time>
      </trkpt>
      <trkpt lat="50.431433" lon="8.913736">
        <ele>134.008446</ele>
        <time>2026-05-04T13:49:36.066Z</time>
      </trkpt>
      <trkpt lat="50.431335" lon="8.914573">
        <ele>134.440407</ele>
        <time>2026-05-04T13:49:48.922Z</time>
      </trkpt>
      <trkpt lat="50.431242" lon="8.915710">
        <ele>135.022265</ele>
        <time>2026-05-04T13:50:06.680Z</time>
      </trkpt>
      <trkpt lat="50.431210" lon="8.916259">
        <ele>135.302091</ele>
        <time>2026-05-04T13:50:15.076Z</time>
      </trkpt>
      <trkpt lat="50.430862" lon="8.915993">
        <ele>135.398545</ele>
        <time>2026-05-04T13:50:21.895Z</time>
      </trkpt>
      <trkpt lat="50.430017" lon="8.915362">
        <ele>135.252862</ele>
        <time>2026-05-04T13:50:35.443Z</time>
      </trkpt>
      <trkpt lat="50.429532" lon="8.914996">
        <ele>135.169081</ele>
        <time>2026-05-04T13:50:42.413Z</time>
      </trkpt>
      <trkpt lat="50.427054" lon="8.913147">
        <ele>133.040317</ele>
        <time>2026-05-04T13:51:16.206Z</time>
      </trkpt>
      <trkpt lat="50.425762" lon="8.912190">
        <ele>133.640529</ele>
        <time>2026-05-04T13:51:35.612Z</time>
      </trkpt>
      <trkpt lat="50.424662" lon="8.911360">
        <ele>136.533366</ele>
        <time>2026-05-04T13:52:06.873Z</time>
      </trkpt>
      <trkpt lat="50.423902" lon="8.910839">
        <ele>139.579821</ele>
        <time>2026-05-04T13:52:40.240Z</time>
      </trkpt>
      <trkpt lat="50.423695" lon="8.910735">
        <ele>140.419444</ele>
        <time>2026-05-04T13:52:48.515Z</time>
      </trkpt>
      <trkpt lat="50.423301" lon="8.910591">
        <ele>141.982213</ele>
        <time>2026-05-04T13:53:02.771Z</time>
      </trkpt>
      <trkpt lat="50.422350" lon="8.910333">
        <ele>141.709424</ele>
        <time>2026-05-04T13:53:18.843Z</time>
      </trkpt>
      <trkpt lat="50.421784" lon="8.910019">
        <ele>139.340157</ele>
        <time>2026-05-04T13:53:24.407Z</time>
      </trkpt>
      <trkpt lat="50.421276" lon="8.909623">
        <ele>137.101568</ele>
        <time>2026-05-04T13:53:29.513Z</time>
      </trkpt>
      <trkpt lat="50.420751" lon="8.909259">
        <ele>134.904745</ele>
        <time>2026-05-04T13:53:34.737Z</time>
      </trkpt>
      <trkpt lat="50.420356" lon="8.909079">
        <ele>133.343196</ele>
        <time>2026-05-04T13:53:38.649Z</time>
      </trkpt>
      <trkpt lat="50.420008" lon="8.908993">
        <ele>132.005737</ele>
        <time>2026-05-04T13:53:42.220Z</time>
      </trkpt>
      <trkpt lat="50.419462" lon="8.908922">
        <ele>129.925745</ele>
        <time>2026-05-04T13:53:48.205Z</time>
      </trkpt>
      <trkpt lat="50.418159" lon="8.908769">
        <ele>129.686698</ele>
        <time>2026-05-04T13:54:06.471Z</time>
      </trkpt>
      <trkpt lat="50.417381" lon="8.908678">
        <ele>130.076973</ele>
        <time>2026-05-04T13:54:20.579Z</time>
      </trkpt>
      <trkpt lat="50.416700" lon="8.908566">
        <ele>131.249427</ele>
        <time>2026-05-04T13:54:35.017Z</time>
      </trkpt>
      <trkpt lat="50.416122" lon="8.908504">
        <ele>132.241438</ele>
        <time>2026-05-04T13:54:48.939Z</time>
      </trkpt>
      <trkpt lat="50.415743" lon="8.908522">
        <ele>132.854128</ele>
        <time>2026-05-04T13:54:58.107Z</time>
      </trkpt>
      <trkpt lat="50.415475" lon="8.908478">
        <ele>133.217709</ele>
        <time>2026-05-04T13:55:04.452Z</time>
      </trkpt>
      <trkpt lat="50.415350" lon="8.908495">
        <ele>133.387001</ele>
        <time>2026-05-04T13:55:07.334Z</time>
      </trkpt>
      <trkpt lat="50.415120" lon="8.908571">
        <ele>133.704141</ele>
        <time>2026-05-04T13:55:12.528Z</time>
      </trkpt>
      <trkpt lat="50.414988" lon="8.908656">
        <ele>133.896657</ele>
        <time>2026-05-04T13:55:15.579Z</time>
      </trkpt>
      <trkpt lat="50.414367" lon="8.908860">
        <ele>134.752722</ele>
        <time>2026-05-04T13:55:27.972Z</time>
      </trkpt>
      <trkpt lat="50.412832" lon="8.909366">
        <ele>134.511910</ele>
        <time>2026-05-04T13:55:51.000Z</time>
      </trkpt>
      <trkpt lat="50.410808" lon="8.910036">
        <ele>131.765180</ele>
        <time>2026-05-04T13:56:14.364Z</time>
      </trkpt>
      <trkpt lat="50.410281" lon="8.910211">
        <ele>131.056068</ele>
        <time>2026-05-04T13:56:20.525Z</time>
      </trkpt>
      <trkpt lat="50.410237" lon="8.910015">
        <ele>130.915439</ele>
        <time>2026-05-04T13:56:22.067Z</time>
      </trkpt>
      <trkpt lat="50.410281" lon="8.910211">
        <ele>130.774811</ele>
        <time>2026-05-04T13:56:23.633Z</time>
      </trkpt>
      <trkpt lat="50.410175" lon="8.910246">
        <ele>130.659785</ele>
        <time>2026-05-04T13:56:24.916Z</time>
      </trkpt>
      <trkpt lat="50.409959" lon="8.910316">
        <ele>130.425574</ele>
        <time>2026-05-04T13:56:27.554Z</time>
      </trkpt>
      <trkpt lat="50.408161" lon="8.910921">
        <ele>129.142607</ele>
        <time>2026-05-04T13:56:50.996Z</time>
      </trkpt>
      <trkpt lat="50.406393" lon="8.911509">
        <ele>128.547215</ele>
        <time>2026-05-04T13:57:18.348Z</time>
      </trkpt>
      <trkpt lat="50.405744" lon="8.911588">
        <ele>128.336297</ele>
        <time>2026-05-04T13:57:27.042Z</time>
      </trkpt>
      <trkpt lat="50.405425" lon="8.911541">
        <ele>128.140750</ele>
        <time>2026-05-04T13:57:30.931Z</time>
      </trkpt>
      <trkpt lat="50.405165" lon="8.911459">
        <ele>127.818523</ele>
        <time>2026-05-04T13:57:34.083Z</time>
      </trkpt>
      <trkpt lat="50.404921" lon="8.911331">
        <ele>127.505924</ele>
        <time>2026-05-04T13:57:37.072Z</time>
      </trkpt>
      <trkpt lat="50.404641" lon="8.911128">
        <ele>127.131150</ele>
        <time>2026-05-04T13:57:40.556Z</time>
      </trkpt>
      <trkpt lat="50.404295" lon="8.910745">
        <ele>126.616651</ele>
        <time>2026-05-04T13:57:45.359Z</time>
      </trkpt>
      <trkpt lat="50.403824" lon="8.910054">
        <ele>126.011903</ele>
        <time>2026-05-04T13:57:53.205Z</time>
      </trkpt>
      <trkpt lat="50.402394" lon="8.907744">
        <ele>125.384273</ele>
        <time>2026-05-04T13:58:22.615Z</time>
      </trkpt>
      <trkpt lat="50.401984" lon="8.906997">
        <ele>125.259933</ele>
        <time>2026-05-04T13:58:31.755Z</time>
      </trkpt>
      <trkpt lat="50.401542" lon="8.906123">
        <ele>125.119208</ele>
        <time>2026-05-04T13:58:41.236Z</time>
      </trkpt>
      <trkpt lat="50.401143" lon="8.905393">
        <ele>125.065918</ele>
        <time>2026-05-04T13:58:49.802Z</time>
      </trkpt>
      <trkpt lat="50.400819" lon="8.904958">
        <ele>125.028984</ele>
        <time>2026-05-04T13:58:55.807Z</time>
      </trkpt>
      <trkpt lat="50.400431" lon="8.904644">
        <ele>124.991172</ele>
        <time>2026-05-04T13:59:02.102Z</time>
      </trkpt>
      <trkpt lat="50.398709" lon="8.903817">
        <ele>125.581396</ele>
        <time>2026-05-04T13:59:31.738Z</time>
      </trkpt>
      <trkpt lat="50.398437" lon="8.903660">
        <ele>125.702777</ele>
        <time>2026-05-04T13:59:36.611Z</time>
      </trkpt>
      <trkpt lat="50.397429" lon="8.903002">
        <ele>126.034119</ele>
        <time>2026-05-04T13:59:55.174Z</time>
      </trkpt>
      <trkpt lat="50.397228" lon="8.902943">
        <ele>126.095457</ele>
        <time>2026-05-04T13:59:58.271Z</time>
      </trkpt>
      <trkpt lat="50.396863" lon="8.902919">
        <ele>126.205037</ele>
        <time>2026-05-04T14:00:03.694Z</time>
      </trkpt>
      <trkpt lat="50.396706" lon="8.902865">
        <ele>126.253250</ele>
        <time>2026-05-04T14:00:06.054Z</time>
      </trkpt>
      <trkpt lat="50.396465" lon="8.902727">
        <ele>126.182965</ele>
        <time>2026-05-04T14:00:09.841Z</time>
      </trkpt>
      <trkpt lat="50.395913" lon="8.902397">
        <ele>126.009193</ele>
        <time>2026-05-04T14:00:17.997Z</time>
      </trkpt>
      <trkpt lat="50.395599" lon="8.902213">
        <ele>125.910590</ele>
        <time>2026-05-04T14:00:22.410Z</time>
      </trkpt>
      <trkpt lat="50.395406" lon="8.902098">
        <ele>125.849858</ele>
        <time>2026-05-04T14:00:25.195Z</time>
      </trkpt>
      <trkpt lat="50.395301" lon="8.902034">
        <ele>125.816720</ele>
        <time>2026-05-04T14:00:26.718Z</time>
      </trkpt>
      <trkpt lat="50.395036" lon="8.901865">
        <ele>125.732570</ele>
        <time>2026-05-04T14:00:30.658Z</time>
      </trkpt>
      <trkpt lat="50.394619" lon="8.901496">
        <ele>125.633195</ele>
        <time>2026-05-04T14:00:37.363Z</time>
      </trkpt>
      <trkpt lat="50.393270" lon="8.900043">
        <ele>125.337320</ele>
        <time>2026-05-04T14:01:00.737Z</time>
      </trkpt>
      <trkpt lat="50.393148" lon="8.899911">
        <ele>125.325930</ele>
        <time>2026-05-04T14:01:02.847Z</time>
      </trkpt>
      <trkpt lat="50.392775" lon="8.899519">
        <ele>125.291425</ele>
        <time>2026-05-04T14:01:09.226Z</time>
      </trkpt>
      <trkpt lat="50.392373" lon="8.899209">
        <ele>125.256999</ele>
        <time>2026-05-04T14:01:15.591Z</time>
      </trkpt>
      <trkpt lat="50.391988" lon="8.899070">
        <ele>125.226637</ele>
        <time>2026-05-04T14:01:21.299Z</time>
      </trkpt>
      <trkpt lat="50.391106" lon="8.898924">
        <ele>125.380400</ele>
        <time>2026-05-04T14:01:35.328Z</time>
      </trkpt>
      <trkpt lat="50.390886" lon="8.898847">
        <ele>125.423692</ele>
        <time>2026-05-04T14:01:38.984Z</time>
      </trkpt>
      <trkpt lat="50.390697" lon="8.898733">
        <ele>125.462583</ele>
        <time>2026-05-04T14:01:42.086Z</time>
      </trkpt>
      <trkpt lat="50.390355" lon="8.898414">
        <ele>125.539004</ele>
        <time>2026-05-04T14:01:48.290Z</time>
      </trkpt>
      <trkpt lat="50.390207" lon="8.898209">
        <ele>125.553162</ele>
        <time>2026-05-04T14:01:51.549Z</time>
      </trkpt>
      <trkpt lat="50.390051" lon="8.897910">
        <ele>125.483122</ele>
        <time>2026-05-04T14:01:55.444Z</time>
      </trkpt>
      <trkpt lat="50.389901" lon="8.897529">
        <ele>125.401945</ele>
        <time>2026-05-04T14:01:59.617Z</time>
      </trkpt>
      <trkpt lat="50.389691" lon="8.896853">
        <ele>125.265623</ele>
        <time>2026-05-04T14:02:06.162Z</time>
      </trkpt>
      <trkpt lat="50.389669" lon="8.896674">
        <ele>125.232575</ele>
        <time>2026-05-04T14:02:07.718Z</time>
      </trkpt>
      <trkpt lat="50.389723" lon="8.896434">
        <ele>125.186436</ele>
        <time>2026-05-04T14:02:09.840Z</time>
      </trkpt>
      <trkpt lat="50.390045" lon="8.895815">
        <ele>125.027406</ele>
        <time>2026-05-04T14:02:16.546Z</time>
      </trkpt>
      <trkpt lat="50.390327" lon="8.895265">
        <ele>124.772446</ele>
        <time>2026-05-04T14:02:22.223Z</time>
      </trkpt>
      <trkpt lat="50.390557" lon="8.894808">
        <ele>124.562122</ele>
        <time>2026-05-04T14:02:26.754Z</time>
      </trkpt>
      <trkpt lat="50.390572" lon="8.894779">
        <ele>124.548632</ele>
        <time>2026-05-04T14:02:27.046Z</time>
      </trkpt>
      <trkpt lat="50.390617" lon="8.894686">
        <ele>124.506457</ele>
        <time>2026-05-04T14:02:27.979Z</time>
      </trkpt>
      <trkpt lat="50.390632" lon="8.894655">
        <ele>124.492399</ele>
        <time>2026-05-04T14:02:28.291Z</time>
      </trkpt>
      <trkpt lat="50.390642" lon="8.894635">
        <ele>124.483218</ele>
        <time>2026-05-04T14:02:28.497Z</time>
      </trkpt>
      <trkpt lat="50.391056" lon="8.893759">
        <ele>124.089315</ele>
        <time>2026-05-04T14:02:37.686Z</time>
      </trkpt>
      <trkpt lat="50.391163" lon="8.893547">
        <ele>124.097749</ele>
        <time>2026-05-04T14:02:41.106Z</time>
      </trkpt>
      <trkpt lat="50.391221" lon="8.893427">
        <ele>124.171157</ele>
        <time>2026-05-04T14:02:42.543Z</time>
      </trkpt>
      <trkpt lat="50.391406" lon="8.893050">
        <ele>124.403073</ele>
        <time>2026-05-04T14:02:47.397Z</time>
      </trkpt>
      <trkpt lat="50.391778" lon="8.892276">
        <ele>124.875584</ele>
        <time>2026-05-04T14:02:58.093Z</time>
      </trkpt>
      <trkpt lat="50.391841" lon="8.892128">
        <ele>124.962334</ele>
        <time>2026-05-04T14:03:00.235Z</time>
      </trkpt>
      <trkpt lat="50.391949" lon="8.891863">
        <ele>125.115654</ele>
        <time>2026-05-04T14:03:04.185Z</time>
      </trkpt>
      <trkpt lat="50.392164" lon="8.891315">
        <ele>125.458471</ele>
        <time>2026-05-04T14:03:15.106Z</time>
      </trkpt>
      <trkpt lat="50.392229" lon="8.891150">
        <ele>125.712992</ele>
        <time>2026-05-04T14:03:18.467Z</time>
      </trkpt>
      <trkpt lat="50.392334" lon="8.890852">
        <ele>126.159788</ele>
        <time>2026-05-04T14:03:24.479Z</time>
      </trkpt>
      <trkpt lat="50.392361" lon="8.890709">
        <ele>126.355494</ele>
        <time>2026-05-04T14:03:27.173Z</time>
      </trkpt>
      <trkpt lat="50.392388" lon="8.890448">
        <ele>126.702467</ele>
        <time>2026-05-04T14:03:31.974Z</time>
      </trkpt>
      <trkpt lat="50.392394" lon="8.889957">
        <ele>127.346892</ele>
        <time>2026-05-04T14:03:41.051Z</time>
      </trkpt>
      <trkpt lat="50.392513" lon="8.888354">
        <ele>129.276589</ele>
        <time>2026-05-04T14:04:11.517Z</time>
      </trkpt>
      <trkpt lat="50.392526" lon="8.887940">
        <ele>129.528592</ele>
        <time>2026-05-04T14:04:18.900Z</time>
      </trkpt>
      <trkpt lat="50.392493" lon="8.887463">
        <ele>129.820294</ele>
        <time>2026-05-04T14:04:26.834Z</time>
      </trkpt>
      <trkpt lat="50.392446" lon="8.887405">
        <ele>129.877323</ele>
        <time>2026-05-04T14:04:28.266Z</time>
      </trkpt>
      <trkpt lat="50.392317" lon="8.887246">
        <ele>130.033778</ele>
        <time>2026-05-04T14:04:32.138Z</time>
      </trkpt>
      <trkpt lat="50.392310" lon="8.887238">
        <ele>130.042037</ele>
        <time>2026-05-04T14:04:32.339Z</time>
      </trkpt>
      <trkpt lat="50.391971" lon="8.886933">
        <ele>130.414725</ele>
        <time>2026-05-04T14:04:40.803Z</time>
      </trkpt>
      <trkpt lat="50.391948" lon="8.886914">
        <ele>130.439515</ele>
        <time>2026-05-04T14:04:41.335Z</time>
      </trkpt>
      <trkpt lat="50.391793" lon="8.886788">
        <ele>130.605999</ele>
        <time>2026-05-04T14:04:44.914Z</time>
      </trkpt>
      <trkpt lat="50.391729" lon="8.886737">
        <ele>130.674457</ele>
        <time>2026-05-04T14:04:46.355Z</time>
      </trkpt>
      <trkpt lat="50.391153" lon="8.886326">
        <ele>130.642515</ele>
        <time>2026-05-04T14:04:58.844Z</time>
      </trkpt>
      <trkpt lat="50.391119" lon="8.886301">
        <ele>130.627580</ele>
        <time>2026-05-04T14:04:59.615Z</time>
      </trkpt>
      <trkpt lat="50.390518" lon="8.885821">
        <ele>130.359342</ele>
        <time>2026-05-04T14:05:12.498Z</time>
      </trkpt>
      <trkpt lat="50.389955" lon="8.885400">
        <ele>130.111685</ele>
        <time>2026-05-04T14:05:20.471Z</time>
      </trkpt>
      <trkpt lat="50.389514" lon="8.885149">
        <ele>129.951701</ele>
        <time>2026-05-04T14:05:26.155Z</time>
      </trkpt>
      <trkpt lat="50.388810" lon="8.884983">
        <ele>129.708928</ele>
        <time>2026-05-04T14:05:35.145Z</time>
      </trkpt>
      <trkpt lat="50.388762" lon="8.884972">
        <ele>129.692385</ele>
        <time>2026-05-04T14:05:35.782Z</time>
      </trkpt>
      <trkpt lat="50.389006" lon="8.883494">
        <ele>129.964231</ele>
        <time>2026-05-04T14:05:57.483Z</time>
      </trkpt>
      <trkpt lat="50.389021" lon="8.883416">
        <ele>130.022723</ele>
        <time>2026-05-04T14:05:58.830Z</time>
      </trkpt>
      <trkpt lat="50.389474" lon="8.882608">
        <ele>130.795203</ele>
        <time>2026-05-04T14:06:17.062Z</time>
      </trkpt>
      <trkpt lat="50.390250" lon="8.881336">
        <ele>131.745332</ele>
        <time>2026-05-04T14:06:45.191Z</time>
      </trkpt>
      <trkpt lat="50.390484" lon="8.880887">
        <ele>131.916533</ele>
        <time>2026-05-04T14:06:53.717Z</time>
      </trkpt>
      <trkpt lat="50.390677" lon="8.880567">
        <ele>132.046573</ele>
        <time>2026-05-04T14:06:59.923Z</time>
      </trkpt>
      <trkpt lat="50.391011" lon="8.880011">
        <ele>132.272092</ele>
        <time>2026-05-04T14:07:09.900Z</time>
      </trkpt>
      <trkpt lat="50.391045" lon="8.879953">
        <ele>132.295352</ele>
        <time>2026-05-04T14:07:10.900Z</time>
      </trkpt>
      <trkpt lat="50.391181" lon="8.879741">
        <ele>132.292534</ele>
        <time>2026-05-04T14:07:14.591Z</time>
      </trkpt>
      <trkpt lat="50.391583" lon="8.879105">
        <ele>131.592622</ele>
        <time>2026-05-04T14:07:24.960Z</time>
      </trkpt>
      <trkpt lat="50.392083" lon="8.878314">
        <ele>130.722114</ele>
        <time>2026-05-04T14:07:36.837Z</time>
      </trkpt>
      <trkpt lat="50.391583" lon="8.874911">
        <ele>126.562679</ele>
        <time>2026-05-04T14:08:11.527Z</time>
      </trkpt>
      <trkpt lat="50.391270" lon="8.872723">
        <ele>124.813396</ele>
        <time>2026-05-04T14:08:35.124Z</time>
      </trkpt>
      <trkpt lat="50.391038" lon="8.871096">
        <ele>124.570331</ele>
        <time>2026-05-04T14:08:55.695Z</time>
      </trkpt>
      <trkpt lat="50.390834" lon="8.868526">
        <ele>125.332223</ele>
        <time>2026-05-04T14:09:34.288Z</time>
      </trkpt>
      <trkpt lat="50.390645" lon="8.866145">
        <ele>126.265535</ele>
        <time>2026-05-04T14:10:09.488Z</time>
      </trkpt>
      <trkpt lat="50.392479" lon="8.865928">
        <ele>126.871707</ele>
        <time>2026-05-04T14:10:48.133Z</time>
      </trkpt>
      <trkpt lat="50.394340" lon="8.865708">
        <ele>128.098956</ele>
        <time>2026-05-04T14:11:28.582Z</time>
      </trkpt>
      <trkpt lat="50.393740" lon="8.857192">
        <ele>137.692935</ele>
        <time>2026-05-04T14:14:00.533Z</time>
      </trkpt>
      <trkpt lat="50.393542" lon="8.854351">
        <ele>140.112731</ele>
        <time>2026-05-04T14:14:47.591Z</time>
      </trkpt>
      <trkpt lat="50.393146" lon="8.848721">
        <ele>142.020509</ele>
        <time>2026-05-04T14:16:09.395Z</time>
      </trkpt>
      <trkpt lat="50.392858" lon="8.844800">
        <ele>140.409476</ele>
        <time>2026-05-04T14:16:53.537Z</time>
      </trkpt>
      <trkpt lat="50.392713" lon="8.842819">
        <ele>140.208755</ele>
        <time>2026-05-04T14:17:16.386Z</time>
      </trkpt>
      <trkpt lat="50.390790" lon="8.843063">
        <ele>141.299020</ele>
        <time>2026-05-04T14:18:04.390Z</time>
      </trkpt>
      <trkpt lat="50.390690" lon="8.838162">
        <ele>142.614906</ele>
        <time>2026-05-04T14:19:11.310Z</time>
      </trkpt>
      <trkpt lat="50.390559" lon="8.830523">
        <ele>144.047754</ele>
        <time>2026-05-04T14:20:56.245Z</time>
      </trkpt>
      <trkpt lat="50.390569" lon="8.828668">
        <ele>144.206790</ele>
        <time>2026-05-04T14:21:19.452Z</time>
      </trkpt>
      <trkpt lat="50.390588" lon="8.826040">
        <ele>144.760208</ele>
        <time>2026-05-04T14:21:55.886Z</time>
      </trkpt>
      <trkpt lat="50.390717" lon="8.822975">
        <ele>145.806649</ele>
        <time>2026-05-04T14:22:41.006Z</time>
      </trkpt>
      <trkpt lat="50.390937" lon="8.817965">
        <ele>147.201208</ele>
        <time>2026-05-04T14:23:49.372Z</time>
      </trkpt>
      <trkpt lat="50.391157" lon="8.813288">
        <ele>149.953286</ele>
        <time>2026-05-04T14:25:01.508Z</time>
      </trkpt>
      <trkpt lat="50.391135" lon="8.813193">
        <ele>150.052823</ele>
        <time>2026-05-04T14:25:02.795Z</time>
      </trkpt>
      <trkpt lat="50.391140" lon="8.813107">
        <ele>150.140006</ele>
        <time>2026-05-04T14:25:03.890Z</time>
      </trkpt>
      <trkpt lat="50.391219" lon="8.812640">
        <ele>150.627790</ele>
        <time>2026-05-04T14:25:10.009Z</time>
      </trkpt>
      <trkpt lat="50.391228" lon="8.812540">
        <ele>150.729748</ele>
        <time>2026-05-04T14:25:11.291Z</time>
      </trkpt>
      <trkpt lat="50.391324" lon="8.811199">
        <ele>152.092088</ele>
        <time>2026-05-04T14:25:29.397Z</time>
      </trkpt>
      <trkpt lat="50.391386" lon="8.810348">
        <ele>153.057362</ele>
        <time>2026-05-04T14:25:41.464Z</time>
      </trkpt>
      <trkpt lat="50.391535" lon="8.808239">
        <ele>156.629504</ele>
        <time>2026-05-04T14:26:16.437Z</time>
      </trkpt>
      <trkpt lat="50.391535" lon="8.807967">
        <ele>157.087403</ele>
        <time>2026-05-04T14:26:21.161Z</time>
      </trkpt>
      <trkpt lat="50.391433" lon="8.807289">
        <ele>158.080683</ele>
        <time>2026-05-04T14:26:32.895Z</time>
      </trkpt>
      <trkpt lat="50.391492" lon="8.807235">
        <ele>158.215115</ele>
        <time>2026-05-04T14:26:34.682Z</time>
      </trkpt>
      <trkpt lat="50.391532" lon="8.807146">
        <ele>158.351737</ele>
        <time>2026-05-04T14:26:36.444Z</time>
      </trkpt>
      <trkpt lat="50.391538" lon="8.806986">
        <ele>158.552829</ele>
        <time>2026-05-04T14:26:39.065Z</time>
      </trkpt>
      <trkpt lat="50.391993" lon="8.806784">
        <ele>159.483431</ele>
        <time>2026-05-04T14:26:53.255Z</time>
      </trkpt>
      <trkpt lat="50.392191" lon="8.806660">
        <ele>159.903000</ele>
        <time>2026-05-04T14:26:59.071Z</time>
      </trkpt>
      <trkpt lat="50.392902" lon="8.806099">
        <ele>161.328680</ele>
        <time>2026-05-04T14:27:18.050Z</time>
      </trkpt>
      <trkpt lat="50.393229" lon="8.805830">
        <ele>161.782149</ele>
        <time>2026-05-04T14:27:26.645Z</time>
      </trkpt>
      <trkpt lat="50.393727" lon="8.805430">
        <ele>162.469269</ele>
        <time>2026-05-04T14:27:39.748Z</time>
      </trkpt>
      <trkpt lat="50.393877" lon="8.805310">
        <ele>162.676061</ele>
        <time>2026-05-04T14:27:43.880Z</time>
      </trkpt>
      <trkpt lat="50.394156" lon="8.805073">
        <ele>163.065720</ele>
        <time>2026-05-04T14:27:52.159Z</time>
      </trkpt>
      <trkpt lat="50.394536" lon="8.804675">
        <ele>164.228970</ele>
        <time>2026-05-04T14:28:05.685Z</time>
      </trkpt>
      <trkpt lat="50.394605" lon="8.804519">
        <ele>164.655035</ele>
        <time>2026-05-04T14:28:08.897Z</time>
      </trkpt>
      <trkpt lat="50.394698" lon="8.804196">
        <ele>165.450334</ele>
        <time>2026-05-04T14:28:14.958Z</time>
      </trkpt>
      <trkpt lat="50.394798" lon="8.803702">
        <ele>166.613395</ele>
        <time>2026-05-04T14:28:24.028Z</time>
      </trkpt>
      <trkpt lat="50.394890" lon="8.802905">
        <ele>168.430913</ele>
        <time>2026-05-04T14:28:39.460Z</time>
      </trkpt>
      <trkpt lat="50.394968" lon="8.802507">
        <ele>169.365256</ele>
        <time>2026-05-04T14:28:48.372Z</time>
      </trkpt>
      <trkpt lat="50.395176" lon="8.801754">
        <ele>172.272962</ele>
        <time>2026-05-04T14:29:07.550Z</time>
      </trkpt>
      <trkpt lat="50.395245" lon="8.801538">
        <ele>173.182960</ele>
        <time>2026-05-04T14:29:13.487Z</time>
      </trkpt>
      <trkpt lat="50.395378" lon="8.801038">
        <ele>175.223588</ele>
        <time>2026-05-04T14:29:26.937Z</time>
      </trkpt>
      <trkpt lat="50.395552" lon="8.800060">
        <ele>179.047997</ele>
        <time>2026-05-04T14:29:53.659Z</time>
      </trkpt>
      <trkpt lat="50.395694" lon="8.799429">
        <ele>181.236831</ele>
        <time>2026-05-04T14:30:11.131Z</time>
      </trkpt>
      <trkpt lat="50.395920" lon="8.798633">
        <ele>183.685582</ele>
        <time>2026-05-04T14:30:30.997Z</time>
      </trkpt>
      <trkpt lat="50.395963" lon="8.798496">
        <ele>184.114714</ele>
        <time>2026-05-04T14:30:34.150Z</time>
      </trkpt>
      <trkpt lat="50.396065" lon="8.798189">
        <ele>185.087587</ele>
        <time>2026-05-04T14:30:41.010Z</time>
      </trkpt>
      <trkpt lat="50.396242" lon="8.797747">
        <ele>186.554432</ele>
        <time>2026-05-04T14:30:50.806Z</time>
      </trkpt>
      <trkpt lat="50.396253" lon="8.797719">
        <ele>186.646859</ele>
        <time>2026-05-04T14:30:51.369Z</time>
      </trkpt>
      <trkpt lat="50.396645" lon="8.796637">
        <ele>188.959481</ele>
        <time>2026-05-04T14:31:11.521Z</time>
      </trkpt>
      <trkpt lat="50.396798" lon="8.795933">
        <ele>189.781573</ele>
        <time>2026-05-04T14:31:22.183Z</time>
      </trkpt>
      <trkpt lat="50.396820" lon="8.795739">
        <ele>189.999362</ele>
        <time>2026-05-04T14:31:24.950Z</time>
      </trkpt>
      <trkpt lat="50.397000" lon="8.793529">
        <ele>191.027754</ele>
        <time>2026-05-04T14:31:51.491Z</time>
      </trkpt>
      <trkpt lat="50.397248" lon="8.791672">
        <ele>190.382038</ele>
        <time>2026-05-04T14:32:06.147Z</time>
      </trkpt>
      <trkpt lat="50.397357" lon="8.790859">
        <ele>189.227928</ele>
        <time>2026-05-04T14:32:11.832Z</time>
      </trkpt>
      <trkpt lat="50.397495" lon="8.789829">
        <ele>187.765818</ele>
        <time>2026-05-04T14:32:18.835Z</time>
      </trkpt>
      <trkpt lat="50.397594" lon="8.789088">
        <ele>186.714078</ele>
        <time>2026-05-04T14:32:23.950Z</time>
      </trkpt>
      <trkpt lat="50.397658" lon="8.788605">
        <ele>186.510761</ele>
        <time>2026-05-04T14:32:27.458Z</time>
      </trkpt>
      <trkpt lat="50.397813" lon="8.787730">
        <ele>186.267049</ele>
        <time>2026-05-04T14:32:34.417Z</time>
      </trkpt>
      <trkpt lat="50.398039" lon="8.786931">
        <ele>186.032470</ele>
        <time>2026-05-04T14:32:42.930Z</time>
      </trkpt>
      <trkpt lat="50.398313" lon="8.786246">
        <ele>186.079715</ele>
        <time>2026-05-04T14:32:52.657Z</time>
      </trkpt>
      <trkpt lat="50.398851" lon="8.785120">
        <ele>187.566950</ele>
        <time>2026-05-04T14:33:12.080Z</time>
      </trkpt>
      <trkpt lat="50.399414" lon="8.783481">
        <ele>189.635007</ele>
        <time>2026-05-04T14:33:38.820Z</time>
      </trkpt>
      <trkpt lat="50.399573" lon="8.783120">
        <ele>190.166835</ele>
        <time>2026-05-04T14:33:45.042Z</time>
      </trkpt>
      <trkpt lat="50.400490" lon="8.781478">
        <ele>192.973162</ele>
        <time>2026-05-04T14:34:15.900Z</time>
      </trkpt>
      <trkpt lat="50.401718" lon="8.779376">
        <ele>197.577195</ele>
        <time>2026-05-04T14:35:01.652Z</time>
      </trkpt>
      <trkpt lat="50.401819" lon="8.779219">
        <ele>197.985978</ele>
        <time>2026-05-04T14:35:05.655Z</time>
      </trkpt>
      <trkpt lat="50.402040" lon="8.778875">
        <ele>198.881042</ele>
        <time>2026-05-04T14:35:14.587Z</time>
      </trkpt>
      <trkpt lat="50.403060" lon="8.777632">
        <ele>202.209653</ele>
        <time>2026-05-04T14:35:49.076Z</time>
      </trkpt>
      <trkpt lat="50.403267" lon="8.777363">
        <ele>202.568945</ele>
        <time>2026-05-04T14:35:54.720Z</time>
      </trkpt>
      <trkpt lat="50.403463" lon="8.777046">
        <ele>202.945227</ele>
        <time>2026-05-04T14:36:00.116Z</time>
      </trkpt>
      <trkpt lat="50.404055" lon="8.775881">
        <ele>204.214643</ele>
        <time>2026-05-04T14:36:16.066Z</time>
      </trkpt>
      <trkpt lat="50.404330" lon="8.775390">
        <ele>205.330044</ele>
        <time>2026-05-04T14:36:24.144Z</time>
      </trkpt>
      <trkpt lat="50.404767" lon="8.774721">
        <ele>207.072906</ele>
        <time>2026-05-04T14:36:39.067Z</time>
      </trkpt>
      <trkpt lat="50.405591" lon="8.773540">
        <ele>210.771993</ele>
        <time>2026-05-04T14:37:14.474Z</time>
      </trkpt>
      <trkpt lat="50.406996" lon="8.771282">
        <ele>219.189474</ele>
        <time>2026-05-04T14:38:22.477Z</time>
      </trkpt>
      <trkpt lat="50.408223" lon="8.769359">
        <ele>223.400681</ele>
        <time>2026-05-04T14:39:04.456Z</time>
      </trkpt>
      <trkpt lat="50.408819" lon="8.768378">
        <ele>224.083789</ele>
        <time>2026-05-04T14:39:17.466Z</time>
      </trkpt>
      <trkpt lat="50.409742" lon="8.767005">
        <ele>225.518054</ele>
        <time>2026-05-04T14:39:37.996Z</time>
      </trkpt>
      <trkpt lat="50.410361" lon="8.766084">
        <ele>226.660577</ele>
        <time>2026-05-04T14:39:58.829Z</time>
      </trkpt>
      <trkpt lat="50.410674" lon="8.765636">
        <ele>226.848393</ele>
        <time>2026-05-04T14:40:09.286Z</time>
      </trkpt>
      <trkpt lat="50.411807" lon="8.764168">
        <ele>226.663758</ele>
        <time>2026-05-04T14:40:29.978Z</time>
      </trkpt>
      <trkpt lat="50.412379" lon="8.763417">
        <ele>224.491377</ele>
        <time>2026-05-04T14:40:37.487Z</time>
      </trkpt>
      <trkpt lat="50.412864" lon="8.762774">
        <ele>222.458059</ele>
        <time>2026-05-04T14:40:43.682Z</time>
      </trkpt>
      <trkpt lat="50.413093" lon="8.762373">
        <ele>221.359184</ele>
        <time>2026-05-04T14:40:47.077Z</time>
      </trkpt>
      <trkpt lat="50.413300" lon="8.761848">
        <ele>220.233331</ele>
        <time>2026-05-04T14:40:51.066Z</time>
      </trkpt>
      <trkpt lat="50.413507" lon="8.761115">
        <ele>218.872847</ele>
        <time>2026-05-04T14:40:56.449Z</time>
      </trkpt>
      <trkpt lat="50.414026" lon="8.759172">
        <ele>215.474177</ele>
        <time>2026-05-04T14:41:10.773Z</time>
      </trkpt>
      <trkpt lat="50.414517" lon="8.757368">
        <ele>212.872301</ele>
        <time>2026-05-04T14:41:23.892Z</time>
      </trkpt>
      <trkpt lat="50.415204" lon="8.754781">
        <ele>211.344984</ele>
        <time>2026-05-04T14:41:48.177Z</time>
      </trkpt>
      <trkpt lat="50.415304" lon="8.754450">
        <ele>211.190955</ele>
        <time>2026-05-04T14:41:51.690Z</time>
      </trkpt>
      <trkpt lat="50.415903" lon="8.752785">
        <ele>207.706658</ele>
        <time>2026-05-04T14:42:05.549Z</time>
      </trkpt>
      <trkpt lat="50.415967" lon="8.752607">
        <ele>207.328291</ele>
        <time>2026-05-04T14:42:06.837Z</time>
      </trkpt>
      <trkpt lat="50.416530" lon="8.751073">
        <ele>201.254846</ele>
        <time>2026-05-04T14:42:17.130Z</time>
      </trkpt>
      <trkpt lat="50.416738" lon="8.750521">
        <ele>198.318611</ele>
        <time>2026-05-04T14:42:20.736Z</time>
      </trkpt>
      <trkpt lat="50.416919" lon="8.750026">
        <ele>195.705555</ele>
        <time>2026-05-04T14:42:23.951Z</time>
      </trkpt>
      <trkpt lat="50.417048" lon="8.749672">
        <ele>193.838409</ele>
        <time>2026-05-04T14:42:26.254Z</time>
      </trkpt>
      <trkpt lat="50.417150" lon="8.749297">
        <ele>191.810645</ele>
        <time>2026-05-04T14:42:28.551Z</time>
      </trkpt>
      <trkpt lat="50.417222" lon="8.748949">
        <ele>189.879507</ele>
        <time>2026-05-04T14:42:30.627Z</time>
      </trkpt>
      <trkpt lat="50.417238" lon="8.748851">
        <ele>189.345555</ele>
        <time>2026-05-04T14:42:31.198Z</time>
      </trkpt>
      <trkpt lat="50.417306" lon="8.748300">
        <ele>186.383344</ele>
        <time>2026-05-04T14:42:34.366Z</time>
      </trkpt>
      <trkpt lat="50.417403" lon="8.747122">
        <ele>180.114195</ele>
        <time>2026-05-04T14:42:41.015Z</time>
      </trkpt>
      <trkpt lat="50.417448" lon="8.746615">
        <ele>177.360242</ele>
        <time>2026-05-04T14:42:43.856Z</time>
      </trkpt>
      <trkpt lat="50.417511" lon="8.745665">
        <ele>171.950613</ele>
        <time>2026-05-04T14:42:49.111Z</time>
      </trkpt>
      <trkpt lat="50.417515" lon="8.745087">
        <ele>168.676771</ele>
        <time>2026-05-04T14:42:52.301Z</time>
      </trkpt>
      <trkpt lat="50.417492" lon="8.744547">
        <ele>165.611520</ele>
        <time>2026-05-04T14:42:55.305Z</time>
      </trkpt>
      <trkpt lat="50.417434" lon="8.743559">
        <ele>160.638487</ele>
        <time>2026-05-04T14:43:00.872Z</time>
      </trkpt>
      <trkpt lat="50.417435" lon="8.742808">
        <ele>157.665797</ele>
        <time>2026-05-04T14:43:05.201Z</time>
      </trkpt>
      <trkpt lat="50.417447" lon="8.742261">
        <ele>155.499323</ele>
        <time>2026-05-04T14:43:08.414Z</time>
      </trkpt>
      <trkpt lat="50.417459" lon="8.741864">
        <ele>153.926111</ele>
        <time>2026-05-04T14:43:10.767Z</time>
      </trkpt>
      <trkpt lat="50.417467" lon="8.741598">
        <ele>152.872031</ele>
        <time>2026-05-04T14:43:12.354Z</time>
      </trkpt>
      <trkpt lat="50.417472" lon="8.741406">
        <ele>152.111404</ele>
        <time>2026-05-04T14:43:13.503Z</time>
      </trkpt>
      <trkpt lat="50.417441" lon="8.741012">
        <ele>150.683607</ele>
        <time>2026-05-04T14:43:15.890Z</time>
      </trkpt>
      <trkpt lat="50.417400" lon="8.740816">
        <ele>150.142655</ele>
        <time>2026-05-04T14:43:17.135Z</time>
      </trkpt>
      <trkpt lat="50.417345" lon="8.740556">
        <ele>149.424274</ele>
        <time>2026-05-04T14:43:18.790Z</time>
      </trkpt>
      <trkpt lat="50.417307" lon="8.740408">
        <ele>149.005854</ele>
        <time>2026-05-04T14:43:19.772Z</time>
      </trkpt>
      <trkpt lat="50.417145" lon="8.739834">
        <ele>147.359624</ele>
        <time>2026-05-04T14:43:23.617Z</time>
      </trkpt>
      <trkpt lat="50.417031" lon="8.739381">
        <ele>146.082439</ele>
        <time>2026-05-04T14:43:26.575Z</time>
      </trkpt>
      <trkpt lat="50.416987" lon="8.738990">
        <ele>145.041255</ele>
        <time>2026-05-04T14:43:29.056Z</time>
      </trkpt>
      <trkpt lat="50.416824" lon="8.739049">
        <ele>144.352839</ele>
        <time>2026-05-04T14:43:30.748Z</time>
      </trkpt>
      <trkpt lat="50.416657" lon="8.739112">
        <ele>143.645995</ele>
        <time>2026-05-04T14:43:32.502Z</time>
      </trkpt>
      <trkpt lat="50.416527" lon="8.739220">
        <ele>143.413308</ele>
        <time>2026-05-04T14:43:34.029Z</time>
      </trkpt>
      <trkpt lat="50.416382" lon="8.739010">
        <ele>143.180150</ele>
        <time>2026-05-04T14:43:40.082Z</time>
      </trkpt>
      <trkpt lat="50.416286" lon="8.738860">
        <ele>143.020068</ele>
        <time>2026-05-04T14:43:44.319Z</time>
      </trkpt>
      <trkpt lat="50.416162" lon="8.738655">
        <ele>142.807234</ele>
        <time>2026-05-04T14:43:47.237Z</time>
      </trkpt>
      <trkpt lat="50.416143" lon="8.738613">
        <ele>142.768450</ele>
        <time>2026-05-04T14:43:47.628Z</time>
      </trkpt>
      <trkpt lat="50.415947" lon="8.738236">
        <ele>142.402077</ele>
        <time>2026-05-04T14:43:51.379Z</time>
      </trkpt>
      <trkpt lat="50.415795" lon="8.737925">
        <ele>142.106947</ele>
        <time>2026-05-04T14:43:54.520Z</time>
      </trkpt>
      <trkpt lat="50.415687" lon="8.737802">
        <ele>141.949259</ele>
        <time>2026-05-04T14:43:56.346Z</time>
      </trkpt>
      <trkpt lat="50.415571" lon="8.737751">
        <ele>141.806905</ele>
        <time>2026-05-04T14:43:58.126Z</time>
      </trkpt>
      <trkpt lat="50.415400" lon="8.737753">
        <ele>141.604830</ele>
        <time>2026-05-04T14:44:00.776Z</time>
      </trkpt>
      <trkpt lat="50.415288" lon="8.737768">
        <ele>141.472000</ele>
        <time>2026-05-04T14:44:02.566Z</time>
      </trkpt>
      <trkpt lat="50.415179" lon="8.737785">
        <ele>141.508387</ele>
        <time>2026-05-04T14:44:04.280Z</time>
      </trkpt>
      <trkpt lat="50.415151" lon="8.737790">
        <ele>141.532964</ele>
        <time>2026-05-04T14:44:04.722Z</time>
      </trkpt>
      <trkpt lat="50.415077" lon="8.737802">
        <ele>141.597845</ele>
        <time>2026-05-04T14:44:05.876Z</time>
      </trkpt>
      <trkpt lat="50.415050" lon="8.737809">
        <ele>141.621712</ele>
        <time>2026-05-04T14:44:06.321Z</time>
      </trkpt>
      <trkpt lat="50.414999" lon="8.737406">
        <ele>141.850049</ele>
        <time>2026-05-04T14:44:10.635Z</time>
      </trkpt>
      <trkpt lat="50.414829" lon="8.736063">
        <ele>142.610994</ele>
        <time>2026-05-04T14:44:27.797Z</time>
      </trkpt>
      <trkpt lat="50.414780" lon="8.735013">
        <ele>143.049221</ele>
        <time>2026-05-04T14:44:41.268Z</time>
      </trkpt>
      <trkpt lat="50.414728" lon="8.734029">
        <ele>143.172598</ele>
        <time>2026-05-04T14:44:51.593Z</time>
      </trkpt>
      <trkpt lat="50.414787" lon="8.733814">
        <ele>143.201848</ele>
        <time>2026-05-04T14:45:08.168Z</time>
      </trkpt>
      <trkpt lat="50.414794" lon="8.733785">
        <ele>143.205723</ele>
        <time>2026-05-04T14:45:10.313Z</time>
      </trkpt>
      <trkpt lat="50.414800" lon="8.733765">
        <ele>143.208485</ele>
        <time>2026-05-04T14:45:10.575Z</time>
      </trkpt>
      <trkpt lat="50.415042" lon="8.733218">
        <ele>143.291693</ele>
        <time>2026-05-04T14:45:18.801Z</time>
      </trkpt>
      <trkpt lat="50.415127" lon="8.733073">
        <ele>143.316312</ele>
        <time>2026-05-04T14:45:21.124Z</time>
      </trkpt>
      <trkpt lat="50.415475" lon="8.732477">
        <ele>143.399377</ele>
        <time>2026-05-04T14:45:30.375Z</time>
      </trkpt>
      <trkpt lat="50.416119" lon="8.730620">
        <ele>143.581827</ele>
        <time>2026-05-04T14:45:59.182Z</time>
      </trkpt>
      <trkpt lat="50.416520" lon="8.729494">
        <ele>143.876401</ele>
        <time>2026-05-04T14:46:17.575Z</time>
      </trkpt>
      <trkpt lat="50.416963" lon="8.728359">
        <ele>144.224528</ele>
        <time>2026-05-04T14:46:35.953Z</time>
      </trkpt>
      <trkpt lat="50.417130" lon="8.727825">
        <ele>144.382940</ele>
        <time>2026-05-04T14:46:44.247Z</time>
      </trkpt>
      <trkpt lat="50.417139" lon="8.727784">
        <ele>144.395107</ele>
        <time>2026-05-04T14:46:44.855Z</time>
      </trkpt>
      <trkpt lat="50.417227" lon="8.727035">
        <ele>144.608794</ele>
        <time>2026-05-04T14:46:55.498Z</time>
      </trkpt>
      <trkpt lat="50.417278" lon="8.726604">
        <ele>144.731786</ele>
        <time>2026-05-04T14:47:01.619Z</time>
      </trkpt>
      <trkpt lat="50.417377" lon="8.725765">
        <ele>144.971183</ele>
        <time>2026-05-04T14:47:13.452Z</time>
      </trkpt>
      <trkpt lat="50.417400" lon="8.725371">
        <ele>145.082188</ele>
        <time>2026-05-04T14:47:19.014Z</time>
      </trkpt>
      <trkpt lat="50.417386" lon="8.724701">
        <ele>145.283766</ele>
        <time>2026-05-04T14:47:28.425Z</time>
      </trkpt>
      <trkpt lat="50.417325" lon="8.724041">
        <ele>145.489300</ele>
        <time>2026-05-04T14:47:37.680Z</time>
      </trkpt>
      <trkpt lat="50.417203" lon="8.723305">
        <ele>145.723677</ele>
        <time>2026-05-04T14:47:48.292Z</time>
      </trkpt>
      <trkpt lat="50.416728" lon="8.721576">
        <ele>146.612838</ele>
        <time>2026-05-04T14:48:15.713Z</time>
      </trkpt>
      <trkpt lat="50.415904" lon="8.717876">
        <ele>149.172322</ele>
        <time>2026-05-04T14:49:17.719Z</time>
      </trkpt>
      <trkpt lat="50.415861" lon="8.717596">
        <ele>149.367687</ele>
        <time>2026-05-04T14:49:22.252Z</time>
      </trkpt>
      <trkpt lat="50.415832" lon="8.716481">
        <ele>149.857637</ele>
        <time>2026-05-04T14:49:39.063Z</time>
      </trkpt>
      <trkpt lat="50.415794" lon="8.715862">
        <ele>150.025625</ele>
        <time>2026-05-04T14:49:47.224Z</time>
      </trkpt>
      <trkpt lat="50.415729" lon="8.715285">
        <ele>150.183910</ele>
        <time>2026-05-04T14:49:54.798Z</time>
      </trkpt>
      <trkpt lat="50.415646" lon="8.714484">
        <ele>150.403131</ele>
        <time>2026-05-04T14:50:05.491Z</time>
      </trkpt>
      <trkpt lat="50.415772" lon="8.711123">
        <ele>152.194050</ele>
        <time>2026-05-04T14:50:44.835Z</time>
      </trkpt>
      <trkpt lat="50.415897" lon="8.708152">
        <ele>154.526213</ele>
        <time>2026-05-04T14:51:21.688Z</time>
      </trkpt>
      <trkpt lat="50.416012" lon="8.705339">
        <ele>157.700342</ele>
        <time>2026-05-04T14:52:01.108Z</time>
      </trkpt>
      <trkpt lat="50.415990" lon="8.703984">
        <ele>159.624486</ele>
        <time>2026-05-04T14:52:22.192Z</time>
      </trkpt>
      <trkpt lat="50.415869" lon="8.702300">
        <ele>161.849469</ele>
        <time>2026-05-04T14:52:48.686Z</time>
      </trkpt>
      <trkpt lat="50.415674" lon="8.699505">
        <ele>164.794150</ele>
        <time>2026-05-04T14:53:27.186Z</time>
      </trkpt>
      <trkpt lat="50.415612" lon="8.698642">
        <ele>165.380177</ele>
        <time>2026-05-04T14:53:37.306Z</time>
      </trkpt>
      <trkpt lat="50.415539" lon="8.697365">
        <ele>166.234392</ele>
        <time>2026-05-04T14:53:51.543Z</time>
      </trkpt>
      <trkpt lat="50.415563" lon="8.696280">
        <ele>166.835217</ele>
        <time>2026-05-04T14:54:04.320Z</time>
      </trkpt>
      <trkpt lat="50.415573" lon="8.695707">
        <ele>167.152447</ele>
        <time>2026-05-04T14:54:11.182Z</time>
      </trkpt>
      <trkpt lat="50.415444" lon="8.694181">
        <ele>167.969088</ele>
        <time>2026-05-04T14:54:29.122Z</time>
      </trkpt>
      <trkpt lat="50.414811" lon="8.691834">
        <ele>169.196837</ele>
        <time>2026-05-04T14:54:57.819Z</time>
      </trkpt>
      <trkpt lat="50.414613" lon="8.691116">
        <ele>169.612830</ele>
        <time>2026-05-04T14:55:06.666Z</time>
      </trkpt>
      <trkpt lat="50.414581" lon="8.690943">
        <ele>169.708615</ele>
        <time>2026-05-04T14:55:08.740Z</time>
      </trkpt>
      <trkpt lat="50.414554" lon="8.690683">
        <ele>169.848687</ele>
        <time>2026-05-04T14:55:11.794Z</time>
      </trkpt>
      <trkpt lat="50.414531" lon="8.690409">
        <ele>169.995638</ele>
        <time>2026-05-04T14:55:15.023Z</time>
      </trkpt>
      <trkpt lat="50.414538" lon="8.688575">
        <ele>170.595764</ele>
        <time>2026-05-04T14:55:36.869Z</time>
      </trkpt>
      <trkpt lat="50.414551" lon="8.686898">
        <ele>170.595764</ele>
        <time>2026-05-04T14:55:57.746Z</time>
      </trkpt>
      <trkpt lat="50.414623" lon="8.686891">
        <ele>170.595764</ele>
        <time>2026-05-04T14:55:59.122Z</time>
      </trkpt>
      <trkpt lat="50.414628" lon="8.686744">
        <ele>170.595764</ele>
        <time>2026-05-04T14:56:09.827Z</time>
      </trkpt>
      <trkpt lat="50.414824" lon="8.686790">
        <ele>170.595764</ele>
        <time>2026-05-04T14:56:32.601Z</time>
      </trkpt>
    </trkseg>
  </trk>
</gpx>